<?xml version="1.0" encoding="UTF-8" standalone="no" ?>
<gpx xmlns="http://www.topografix.com/GPX/1/1" xmlns:xsi="http://www.w3.org/2001/XMLSchema-instance" xsi:schemaLocation="http://www.topografix.com/GPX/1/1 http://www.topografix.com/GPX/1/1/gpx.xsd" version="1.1" creator="VisuGPX - https://www.visugpx.com">
  <metadata>
    <name>rando Berny sur Noye_11km</name>
    <desc><![CDATA[Walkmeter Marche 17 mars 2013 09:10:42]]></desc>
  </metadata>
  <trk>
    <name><![CDATA[Ch en S]]></name>
    <trkseg>
      <trkpt lat="49.74586" lon="2.35408">
        <ele>60</ele>
        <time>2013-03-17T08:10:42Z</time>
      </trkpt>
      <trkpt lat="49.74583" lon="2.35409">
        <ele>59.7</ele>
        <time>2013-03-17T08:10:45Z</time>
      </trkpt>
      <trkpt lat="49.74584" lon="2.35398">
        <ele>58.8</ele>
        <time>2013-03-17T08:10:52Z</time>
      </trkpt>
      <trkpt lat="49.74585" lon="2.35376">
        <ele>55.9</ele>
        <time>2013-03-17T08:11:14Z</time>
      </trkpt>
      <trkpt lat="49.74588" lon="2.35354">
        <ele>55.5</ele>
        <time>2013-03-17T08:11:26Z</time>
      </trkpt>
      <trkpt lat="49.74595" lon="2.35336">
        <ele>56.7</ele>
        <time>2013-03-17T08:11:37Z</time>
      </trkpt>
      <trkpt lat="49.74606" lon="2.35325">
        <ele>57.3</ele>
        <time>2013-03-17T08:11:43Z</time>
      </trkpt>
      <trkpt lat="49.74607" lon="2.35304">
        <ele>57.9</ele>
        <time>2013-03-17T08:11:49Z</time>
      </trkpt>
      <trkpt lat="49.74607" lon="2.35282">
        <ele>58.5</ele>
        <time>2013-03-17T08:11:58Z</time>
      </trkpt>
      <trkpt lat="49.74601" lon="2.35263">
        <ele>58.9</ele>
        <time>2013-03-17T08:12:05Z</time>
      </trkpt>
      <trkpt lat="49.74613" lon="2.35251">
        <ele>59.6</ele>
        <time>2013-03-17T08:12:17Z</time>
      </trkpt>
      <trkpt lat="49.74619" lon="2.3523">
        <ele>60.2</ele>
        <time>2013-03-17T08:12:26Z</time>
      </trkpt>
      <trkpt lat="49.74626" lon="2.35212">
        <ele>60.8</ele>
        <time>2013-03-17T08:12:36Z</time>
      </trkpt>
      <trkpt lat="49.74631" lon="2.3519">
        <ele>60</ele>
        <time>2013-03-17T08:12:45Z</time>
      </trkpt>
      <trkpt lat="49.74632" lon="2.35169">
        <ele>58.2</ele>
        <time>2013-03-17T08:12:54Z</time>
      </trkpt>
      <trkpt lat="49.74637" lon="2.35147">
        <ele>56.7</ele>
        <time>2013-03-17T08:13:07Z</time>
      </trkpt>
      <trkpt lat="49.74641" lon="2.35126">
        <ele>55.4</ele>
        <time>2013-03-17T08:13:18Z</time>
      </trkpt>
      <trkpt lat="49.74646" lon="2.35106">
        <ele>55.3</ele>
        <time>2013-03-17T08:13:29Z</time>
      </trkpt>
      <trkpt lat="49.74652" lon="2.35085">
        <ele>55.9</ele>
        <time>2013-03-17T08:13:40Z</time>
      </trkpt>
      <trkpt lat="49.74648" lon="2.35067">
        <ele>56.6</ele>
        <time>2013-03-17T08:13:55Z</time>
      </trkpt>
      <trkpt lat="49.74634" lon="2.35058">
        <ele>57.1</ele>
        <time>2013-03-17T08:14:04Z</time>
      </trkpt>
      <trkpt lat="49.74623" lon="2.35044">
        <ele>57.5</ele>
        <time>2013-03-17T08:14:12Z</time>
      </trkpt>
      <trkpt lat="49.74613" lon="2.35029">
        <ele>58.1</ele>
        <time>2013-03-17T08:14:24Z</time>
      </trkpt>
      <trkpt lat="49.74601" lon="2.35018">
        <ele>58.6</ele>
        <time>2013-03-17T08:14:34Z</time>
      </trkpt>
      <trkpt lat="49.74588" lon="2.35008">
        <ele>59</ele>
        <time>2013-03-17T08:14:42Z</time>
      </trkpt>
      <trkpt lat="49.74579" lon="2.34991">
        <ele>62.3</ele>
        <time>2013-03-17T08:14:48Z</time>
      </trkpt>
      <trkpt lat="49.74568" lon="2.34975">
        <ele>59.5</ele>
        <time>2013-03-17T08:14:56Z</time>
      </trkpt>
      <trkpt lat="49.74557" lon="2.34961">
        <ele>53</ele>
        <time>2013-03-17T08:15:09Z</time>
      </trkpt>
      <trkpt lat="49.74546" lon="2.34949">
        <ele>50.8</ele>
        <time>2013-03-17T08:15:20Z</time>
      </trkpt>
      <trkpt lat="49.74535" lon="2.34933">
        <ele>49.4</ele>
        <time>2013-03-17T08:15:30Z</time>
      </trkpt>
      <trkpt lat="49.74528" lon="2.34915">
        <ele>48.1</ele>
        <time>2013-03-17T08:15:39Z</time>
      </trkpt>
      <trkpt lat="49.74528" lon="2.34892">
        <ele>50.1</ele>
        <time>2013-03-17T08:15:49Z</time>
      </trkpt>
      <trkpt lat="49.74535" lon="2.34874">
        <ele>52.1</ele>
        <time>2013-03-17T08:15:59Z</time>
      </trkpt>
      <trkpt lat="49.74544" lon="2.34856">
        <ele>52.6</ele>
        <time>2013-03-17T08:16:08Z</time>
      </trkpt>
      <trkpt lat="49.74551" lon="2.34838">
        <ele>53.1</ele>
        <time>2013-03-17T08:16:19Z</time>
      </trkpt>
      <trkpt lat="49.74559" lon="2.3482">
        <ele>53.7</ele>
        <time>2013-03-17T08:16:30Z</time>
      </trkpt>
      <trkpt lat="49.74565" lon="2.34802">
        <ele>54.2</ele>
        <time>2013-03-17T08:16:40Z</time>
      </trkpt>
      <trkpt lat="49.74574" lon="2.34784">
        <ele>54.7</ele>
        <time>2013-03-17T08:16:51Z</time>
      </trkpt>
      <trkpt lat="49.74582" lon="2.34772">
        <ele>55.1</ele>
        <time>2013-03-17T08:16:57Z</time>
      </trkpt>
      <trkpt lat="49.74578" lon="2.3475">
        <ele>55.4</ele>
        <time>2013-03-17T08:17:03Z</time>
      </trkpt>
      <trkpt lat="49.74581" lon="2.34729">
        <ele>55.8</ele>
        <time>2013-03-17T08:17:11Z</time>
      </trkpt>
      <trkpt lat="49.74594" lon="2.3472">
        <ele>56.4</ele>
        <time>2013-03-17T08:17:22Z</time>
      </trkpt>
      <trkpt lat="49.74599" lon="2.34699">
        <ele>57.2</ele>
        <time>2013-03-17T08:17:36Z</time>
      </trkpt>
      <trkpt lat="49.74606" lon="2.3468">
        <ele>57.7</ele>
        <time>2013-03-17T08:17:45Z</time>
      </trkpt>
      <trkpt lat="49.74612" lon="2.34661">
        <ele>58.2</ele>
        <time>2013-03-17T08:17:54Z</time>
      </trkpt>
      <trkpt lat="49.74617" lon="2.34642">
        <ele>58.6</ele>
        <time>2013-03-17T08:18:01Z</time>
      </trkpt>
      <trkpt lat="49.74621" lon="2.3462">
        <ele>59.1</ele>
        <time>2013-03-17T08:18:10Z</time>
      </trkpt>
      <trkpt lat="49.74623" lon="2.34598">
        <ele>59.6</ele>
        <time>2013-03-17T08:18:20Z</time>
      </trkpt>
      <trkpt lat="49.74629" lon="2.34579">
        <ele>60.3</ele>
        <time>2013-03-17T08:18:29Z</time>
      </trkpt>
      <trkpt lat="49.7464" lon="2.34565">
        <ele>61.6</ele>
        <time>2013-03-17T08:18:40Z</time>
      </trkpt>
      <trkpt lat="49.74648" lon="2.34545">
        <ele>62.2</ele>
        <time>2013-03-17T08:18:54Z</time>
      </trkpt>
      <trkpt lat="49.74659" lon="2.3453">
        <ele>63.6</ele>
        <time>2013-03-17T08:19:02Z</time>
      </trkpt>
      <trkpt lat="49.74669" lon="2.34517">
        <ele>64</ele>
        <time>2013-03-17T08:19:12Z</time>
      </trkpt>
      <trkpt lat="49.74679" lon="2.34503">
        <ele>64</ele>
        <time>2013-03-17T08:19:21Z</time>
      </trkpt>
      <trkpt lat="49.7469" lon="2.3449">
        <ele>64.5</ele>
        <time>2013-03-17T08:19:33Z</time>
      </trkpt>
      <trkpt lat="49.74702" lon="2.34475">
        <ele>67</ele>
        <time>2013-03-17T08:19:43Z</time>
      </trkpt>
      <trkpt lat="49.74712" lon="2.34461">
        <ele>74</ele>
        <time>2013-03-17T08:19:54Z</time>
      </trkpt>
      <trkpt lat="49.74724" lon="2.34446">
        <ele>75.9</ele>
        <time>2013-03-17T08:20:05Z</time>
      </trkpt>
      <trkpt lat="49.74737" lon="2.34439">
        <ele>77.6</ele>
        <time>2013-03-17T08:20:14Z</time>
      </trkpt>
      <trkpt lat="49.74745" lon="2.34421">
        <ele>79.4</ele>
        <time>2013-03-17T08:20:24Z</time>
      </trkpt>
      <trkpt lat="49.74753" lon="2.34402">
        <ele>77.9</ele>
        <time>2013-03-17T08:20:34Z</time>
      </trkpt>
      <trkpt lat="49.7476" lon="2.34383">
        <ele>77.4</ele>
        <time>2013-03-17T08:20:43Z</time>
      </trkpt>
      <trkpt lat="49.7477" lon="2.3437">
        <ele>77.3</ele>
        <time>2013-03-17T08:20:53Z</time>
      </trkpt>
      <trkpt lat="49.74781" lon="2.34356">
        <ele>79.2</ele>
        <time>2013-03-17T08:21:06Z</time>
      </trkpt>
      <trkpt lat="49.74784" lon="2.34335">
        <ele>79.9</ele>
        <time>2013-03-17T08:21:11Z</time>
      </trkpt>
      <trkpt lat="49.7479" lon="2.34316">
        <ele>79.6</ele>
        <time>2013-03-17T08:21:18Z</time>
      </trkpt>
      <trkpt lat="49.74799" lon="2.343">
        <ele>78.8</ele>
        <time>2013-03-17T08:21:30Z</time>
      </trkpt>
      <trkpt lat="49.74807" lon="2.34281">
        <ele>78.1</ele>
        <time>2013-03-17T08:21:41Z</time>
      </trkpt>
      <trkpt lat="49.74816" lon="2.34265">
        <ele>77.4</ele>
        <time>2013-03-17T08:21:51Z</time>
      </trkpt>
      <trkpt lat="49.74823" lon="2.34246">
        <ele>76.8</ele>
        <time>2013-03-17T08:22:01Z</time>
      </trkpt>
      <trkpt lat="49.74835" lon="2.34234">
        <ele>76.1</ele>
        <time>2013-03-17T08:22:12Z</time>
      </trkpt>
      <trkpt lat="49.74836" lon="2.34213">
        <ele>75.5</ele>
        <time>2013-03-17T08:22:21Z</time>
      </trkpt>
      <trkpt lat="49.74837" lon="2.34204">
        <ele>75.3</ele>
        <time>2013-03-17T08:22:24Z</time>
      </trkpt>
      <trkpt lat="49.74848" lon="2.34193">
        <ele>77.2</ele>
        <time>2013-03-17T08:22:34Z</time>
      </trkpt>
      <trkpt lat="49.74852" lon="2.34172">
        <ele>77.8</ele>
        <time>2013-03-17T08:22:44Z</time>
      </trkpt>
      <trkpt lat="49.74856" lon="2.34152">
        <ele>75</ele>
        <time>2013-03-17T08:22:56Z</time>
      </trkpt>
      <trkpt lat="49.74866" lon="2.34137">
        <ele>73</ele>
        <time>2013-03-17T08:23:08Z</time>
      </trkpt>
      <trkpt lat="49.74868" lon="2.34114">
        <ele>74.3</ele>
        <time>2013-03-17T08:23:18Z</time>
      </trkpt>
      <trkpt lat="49.7487" lon="2.34093">
        <ele>75.9</ele>
        <time>2013-03-17T08:23:27Z</time>
      </trkpt>
      <trkpt lat="49.74874" lon="2.34073">
        <ele>72</ele>
        <time>2013-03-17T08:23:39Z</time>
      </trkpt>
      <trkpt lat="49.74871" lon="2.34051">
        <ele>70.6</ele>
        <time>2013-03-17T08:23:47Z</time>
      </trkpt>
      <trkpt lat="49.74873" lon="2.3403">
        <ele>69.3</ele>
        <time>2013-03-17T08:23:58Z</time>
      </trkpt>
      <trkpt lat="49.7487" lon="2.34004">
        <ele>68.7</ele>
        <time>2013-03-17T08:24:05Z</time>
      </trkpt>
      <trkpt lat="49.74868" lon="2.33983">
        <ele>67.9</ele>
        <time>2013-03-17T08:24:13Z</time>
      </trkpt>
      <trkpt lat="49.74876" lon="2.33966">
        <ele>67</ele>
        <time>2013-03-17T08:24:25Z</time>
      </trkpt>
      <trkpt lat="49.74878" lon="2.33944">
        <ele>67</ele>
        <time>2013-03-17T08:24:36Z</time>
      </trkpt>
      <trkpt lat="49.74887" lon="2.33928">
        <ele>67.6</ele>
        <time>2013-03-17T08:24:45Z</time>
      </trkpt>
      <trkpt lat="49.74893" lon="2.33911">
        <ele>68.2</ele>
        <time>2013-03-17T08:24:51Z</time>
      </trkpt>
      <trkpt lat="49.74895" lon="2.33889">
        <ele>69.3</ele>
        <time>2013-03-17T08:25:01Z</time>
      </trkpt>
      <trkpt lat="49.74897" lon="2.33867">
        <ele>71</ele>
        <time>2013-03-17T08:25:12Z</time>
      </trkpt>
      <trkpt lat="49.74901" lon="2.33847">
        <ele>73.3</ele>
        <time>2013-03-17T08:25:21Z</time>
      </trkpt>
      <trkpt lat="49.74909" lon="2.33829">
        <ele>77</ele>
        <time>2013-03-17T08:25:36Z</time>
      </trkpt>
      <trkpt lat="49.7492" lon="2.33813">
        <ele>76.2</ele>
        <time>2013-03-17T08:25:40Z</time>
      </trkpt>
      <trkpt lat="49.74929" lon="2.33798">
        <ele>75</ele>
        <time>2013-03-17T08:25:49Z</time>
      </trkpt>
      <trkpt lat="49.74938" lon="2.33781">
        <ele>71.8</ele>
        <time>2013-03-17T08:26:00Z</time>
      </trkpt>
      <trkpt lat="49.74946" lon="2.33763">
        <ele>70.7</ele>
        <time>2013-03-17T08:26:11Z</time>
      </trkpt>
      <trkpt lat="49.74953" lon="2.33745">
        <ele>71.6</ele>
        <time>2013-03-17T08:26:21Z</time>
      </trkpt>
      <trkpt lat="49.74961" lon="2.33729">
        <ele>72.4</ele>
        <time>2013-03-17T08:26:30Z</time>
      </trkpt>
      <trkpt lat="49.74968" lon="2.33709">
        <ele>73.6</ele>
        <time>2013-03-17T08:26:39Z</time>
      </trkpt>
      <trkpt lat="49.74977" lon="2.33692">
        <ele>76.1</ele>
        <time>2013-03-17T08:26:50Z</time>
      </trkpt>
      <trkpt lat="49.74983" lon="2.33671">
        <ele>79.9</ele>
        <time>2013-03-17T08:26:59Z</time>
      </trkpt>
      <trkpt lat="49.74995" lon="2.33659">
        <ele>82.7</ele>
        <time>2013-03-17T08:27:08Z</time>
      </trkpt>
      <trkpt lat="49.75002" lon="2.33639">
        <ele>81.7</ele>
        <time>2013-03-17T08:27:19Z</time>
      </trkpt>
      <trkpt lat="49.7501" lon="2.3362">
        <ele>83.9</ele>
        <time>2013-03-17T08:27:29Z</time>
      </trkpt>
      <trkpt lat="49.75017" lon="2.33602">
        <ele>82.6</ele>
        <time>2013-03-17T08:27:38Z</time>
      </trkpt>
      <trkpt lat="49.75026" lon="2.33585">
        <ele>81</ele>
        <time>2013-03-17T08:27:50Z</time>
      </trkpt>
      <trkpt lat="49.75034" lon="2.33565">
        <ele>80.3</ele>
        <time>2013-03-17T08:28:00Z</time>
      </trkpt>
      <trkpt lat="49.75042" lon="2.33547">
        <ele>79.6</ele>
        <time>2013-03-17T08:28:10Z</time>
      </trkpt>
      <trkpt lat="49.75047" lon="2.3353">
        <ele>78.9</ele>
        <time>2013-03-17T08:28:20Z</time>
      </trkpt>
      <trkpt lat="49.75055" lon="2.33512">
        <ele>78.3</ele>
        <time>2013-03-17T08:28:29Z</time>
      </trkpt>
      <trkpt lat="49.75061" lon="2.33491">
        <ele>77.5</ele>
        <time>2013-03-17T08:28:40Z</time>
      </trkpt>
      <trkpt lat="49.75063" lon="2.3347">
        <ele>76.7</ele>
        <time>2013-03-17T08:28:49Z</time>
      </trkpt>
      <trkpt lat="49.75066" lon="2.33449">
        <ele>76</ele>
        <time>2013-03-17T08:28:57Z</time>
      </trkpt>
      <trkpt lat="49.75071" lon="2.33429">
        <ele>75.3</ele>
        <time>2013-03-17T08:29:06Z</time>
      </trkpt>
      <trkpt lat="49.75077" lon="2.3341">
        <ele>74.4</ele>
        <time>2013-03-17T08:29:16Z</time>
      </trkpt>
      <trkpt lat="49.75086" lon="2.33394">
        <ele>72</ele>
        <time>2013-03-17T08:29:27Z</time>
      </trkpt>
      <trkpt lat="49.75088" lon="2.33373">
        <ele>71</ele>
        <time>2013-03-17T08:29:36Z</time>
      </trkpt>
      <trkpt lat="49.75094" lon="2.33353">
        <ele>69</ele>
        <time>2013-03-17T08:29:46Z</time>
      </trkpt>
      <trkpt lat="49.75096" lon="2.33331">
        <ele>72.2</ele>
        <time>2013-03-17T08:29:56Z</time>
      </trkpt>
      <trkpt lat="49.75098" lon="2.3332">
        <ele>73.6</ele>
        <time>2013-03-17T08:30:04Z</time>
      </trkpt>
      <trkpt lat="49.75097" lon="2.33298">
        <ele>75.8</ele>
        <time>2013-03-17T08:30:15Z</time>
      </trkpt>
      <trkpt lat="49.75103" lon="2.33277">
        <ele>78.3</ele>
        <time>2013-03-17T08:30:23Z</time>
      </trkpt>
      <trkpt lat="49.75107" lon="2.33255">
        <ele>81.1</ele>
        <time>2013-03-17T08:30:32Z</time>
      </trkpt>
      <trkpt lat="49.75106" lon="2.33234">
        <ele>81.7</ele>
        <time>2013-03-17T08:30:38Z</time>
      </trkpt>
      <trkpt lat="49.75113" lon="2.33214">
        <ele>80.9</ele>
        <time>2013-03-17T08:30:48Z</time>
      </trkpt>
      <trkpt lat="49.75119" lon="2.33193">
        <ele>80.3</ele>
        <time>2013-03-17T08:30:59Z</time>
      </trkpt>
      <trkpt lat="49.75125" lon="2.33173">
        <ele>85</ele>
        <time>2013-03-17T08:31:09Z</time>
      </trkpt>
      <trkpt lat="49.75133" lon="2.33154">
        <ele>81</ele>
        <time>2013-03-17T08:31:20Z</time>
      </trkpt>
      <trkpt lat="49.75139" lon="2.33134">
        <ele>76.3</ele>
        <time>2013-03-17T08:31:33Z</time>
      </trkpt>
      <trkpt lat="49.75143" lon="2.33114">
        <ele>73</ele>
        <time>2013-03-17T08:31:45Z</time>
      </trkpt>
      <trkpt lat="49.75146" lon="2.33092">
        <ele>72</ele>
        <time>2013-03-17T08:31:54Z</time>
      </trkpt>
      <trkpt lat="49.75152" lon="2.33077">
        <ele>73</ele>
        <time>2013-03-17T08:32:04Z</time>
      </trkpt>
      <trkpt lat="49.75156" lon="2.33056">
        <ele>73.9</ele>
        <time>2013-03-17T08:32:14Z</time>
      </trkpt>
      <trkpt lat="49.75156" lon="2.33034">
        <ele>74.6</ele>
        <time>2013-03-17T08:32:21Z</time>
      </trkpt>
      <trkpt lat="49.75158" lon="2.33012">
        <ele>73.4</ele>
        <time>2013-03-17T08:32:28Z</time>
      </trkpt>
      <trkpt lat="49.75168" lon="2.32995">
        <ele>73.9</ele>
        <time>2013-03-17T08:32:41Z</time>
      </trkpt>
      <trkpt lat="49.75171" lon="2.32974">
        <ele>75.9</ele>
        <time>2013-03-17T08:32:49Z</time>
      </trkpt>
      <trkpt lat="49.75178" lon="2.32956">
        <ele>74.6</ele>
        <time>2013-03-17T08:33:01Z</time>
      </trkpt>
      <trkpt lat="49.75184" lon="2.32941">
        <ele>73.7</ele>
        <time>2013-03-17T08:33:10Z</time>
      </trkpt>
      <trkpt lat="49.75193" lon="2.32941">
        <ele>73.1</ele>
        <time>2013-03-17T08:33:16Z</time>
      </trkpt>
      <trkpt lat="49.75187" lon="2.32922">
        <ele>72.3</ele>
        <time>2013-03-17T08:33:23Z</time>
      </trkpt>
      <trkpt lat="49.75173" lon="2.3292">
        <ele>69</ele>
        <time>2013-03-17T08:33:42Z</time>
      </trkpt>
      <trkpt lat="49.75158" lon="2.3292">
        <ele>72.3</ele>
        <time>2013-03-17T08:34:04Z</time>
      </trkpt>
      <trkpt lat="49.75154" lon="2.32929">
        <ele>72.2</ele>
        <time>2013-03-17T08:34:11Z</time>
      </trkpt>
      <trkpt lat="49.75146" lon="2.32908">
        <ele>71.5</ele>
        <time>2013-03-17T08:34:45Z</time>
      </trkpt>
      <trkpt lat="49.75146" lon="2.32908">
        <ele>71.5</ele>
        <time>2013-03-17T08:37:24Z</time>
      </trkpt>
      <trkpt lat="49.75132" lon="2.32908">
        <ele>73</ele>
        <time>2013-03-17T08:37:34Z</time>
      </trkpt>
      <trkpt lat="49.75118" lon="2.32899">
        <ele>73.5</ele>
        <time>2013-03-17T08:37:50Z</time>
      </trkpt>
      <trkpt lat="49.75105" lon="2.32892">
        <ele>74</ele>
        <time>2013-03-17T08:38:06Z</time>
      </trkpt>
      <trkpt lat="49.75091" lon="2.32891">
        <ele>74.4</ele>
        <time>2013-03-17T08:38:20Z</time>
      </trkpt>
      <trkpt lat="49.75078" lon="2.32887">
        <ele>74.8</ele>
        <time>2013-03-17T08:38:32Z</time>
      </trkpt>
      <trkpt lat="49.75065" lon="2.32883">
        <ele>75.4</ele>
        <time>2013-03-17T08:38:46Z</time>
      </trkpt>
      <trkpt lat="49.75051" lon="2.32878">
        <ele>76.2</ele>
        <time>2013-03-17T08:39:00Z</time>
      </trkpt>
      <trkpt lat="49.75038" lon="2.32874">
        <ele>77</ele>
        <time>2013-03-17T08:39:14Z</time>
      </trkpt>
      <trkpt lat="49.75024" lon="2.32872">
        <ele>77.8</ele>
        <time>2013-03-17T08:39:29Z</time>
      </trkpt>
      <trkpt lat="49.7501" lon="2.32866">
        <ele>75.5</ele>
        <time>2013-03-17T08:39:42Z</time>
      </trkpt>
      <trkpt lat="49.74997" lon="2.32863">
        <ele>76.9</ele>
        <time>2013-03-17T08:39:53Z</time>
      </trkpt>
      <trkpt lat="49.74981" lon="2.32862">
        <ele>78.5</ele>
        <time>2013-03-17T08:40:04Z</time>
      </trkpt>
      <trkpt lat="49.74967" lon="2.3286">
        <ele>81.6</ele>
        <time>2013-03-17T08:40:15Z</time>
      </trkpt>
      <trkpt lat="49.74952" lon="2.32859">
        <ele>89</ele>
        <time>2013-03-17T08:40:26Z</time>
      </trkpt>
      <trkpt lat="49.74938" lon="2.32852">
        <ele>87.6</ele>
        <time>2013-03-17T08:40:38Z</time>
      </trkpt>
      <trkpt lat="49.74923" lon="2.32848">
        <ele>86.2</ele>
        <time>2013-03-17T08:40:50Z</time>
      </trkpt>
      <trkpt lat="49.74914" lon="2.32846">
        <ele>85</ele>
        <time>2013-03-17T08:41:01Z</time>
      </trkpt>
      <trkpt lat="49.74899" lon="2.32847">
        <ele>87.4</ele>
        <time>2013-03-17T08:41:14Z</time>
      </trkpt>
      <trkpt lat="49.74885" lon="2.32841">
        <ele>87</ele>
        <time>2013-03-17T08:41:30Z</time>
      </trkpt>
      <trkpt lat="49.74872" lon="2.32836">
        <ele>86.1</ele>
        <time>2013-03-17T08:41:41Z</time>
      </trkpt>
      <trkpt lat="49.74859" lon="2.32829">
        <ele>85.1</ele>
        <time>2013-03-17T08:41:55Z</time>
      </trkpt>
      <trkpt lat="49.74846" lon="2.32822">
        <ele>90</ele>
        <time>2013-03-17T08:42:15Z</time>
      </trkpt>
      <trkpt lat="49.74832" lon="2.32823">
        <ele>92.5</ele>
        <time>2013-03-17T08:42:24Z</time>
      </trkpt>
      <trkpt lat="49.74819" lon="2.32823">
        <ele>93.3</ele>
        <time>2013-03-17T08:42:44Z</time>
      </trkpt>
      <trkpt lat="49.74805" lon="2.32825">
        <ele>98.2</ele>
        <time>2013-03-17T08:42:55Z</time>
      </trkpt>
      <trkpt lat="49.74791" lon="2.32823">
        <ele>100.7</ele>
        <time>2013-03-17T08:43:08Z</time>
      </trkpt>
      <trkpt lat="49.74777" lon="2.32818">
        <ele>100</ele>
        <time>2013-03-17T08:43:18Z</time>
      </trkpt>
      <trkpt lat="49.74763" lon="2.32814">
        <ele>99.2</ele>
        <time>2013-03-17T08:43:29Z</time>
      </trkpt>
      <trkpt lat="49.74749" lon="2.32807">
        <ele>97</ele>
        <time>2013-03-17T08:43:42Z</time>
      </trkpt>
      <trkpt lat="49.74744" lon="2.32801">
        <ele>99.7</ele>
        <time>2013-03-17T08:43:50Z</time>
      </trkpt>
      <trkpt lat="49.7473" lon="2.32807">
        <ele>102.9</ele>
        <time>2013-03-17T08:43:58Z</time>
      </trkpt>
      <trkpt lat="49.74716" lon="2.32809">
        <ele>106</ele>
        <time>2013-03-17T08:44:07Z</time>
      </trkpt>
      <trkpt lat="49.74702" lon="2.32805">
        <ele>106</ele>
        <time>2013-03-17T08:44:19Z</time>
      </trkpt>
      <trkpt lat="49.74673" lon="2.32801">
        <ele>102</ele>
        <time>2013-03-17T08:44:36Z</time>
      </trkpt>
      <trkpt lat="49.74673" lon="2.32801">
        <ele>102</ele>
        <time>2013-03-17T08:49:55Z</time>
      </trkpt>
      <trkpt lat="49.74657" lon="2.32808">
        <ele>98</ele>
        <time>2013-03-17T08:49:58Z</time>
      </trkpt>
      <trkpt lat="49.74671" lon="2.32805">
        <ele>98.5</ele>
        <time>2013-03-17T08:50:06Z</time>
      </trkpt>
      <trkpt lat="49.74682" lon="2.32791">
        <ele>100.5</ele>
        <time>2013-03-17T08:50:14Z</time>
      </trkpt>
      <trkpt lat="49.74685" lon="2.32783">
        <ele>103.2</ele>
        <time>2013-03-17T08:50:24Z</time>
      </trkpt>
      <trkpt lat="49.74694" lon="2.32782">
        <ele>105.4</ele>
        <time>2013-03-17T08:50:32Z</time>
      </trkpt>
      <trkpt lat="49.74693" lon="2.32761">
        <ele>108.2</ele>
        <time>2013-03-17T08:50:39Z</time>
      </trkpt>
      <trkpt lat="49.74693" lon="2.3274">
        <ele>115.4</ele>
        <time>2013-03-17T08:50:47Z</time>
      </trkpt>
      <trkpt lat="49.74695" lon="2.32718">
        <ele>117.5</ele>
        <time>2013-03-17T08:50:57Z</time>
      </trkpt>
      <trkpt lat="49.747" lon="2.32698">
        <ele>115.4</ele>
        <time>2013-03-17T08:51:13Z</time>
      </trkpt>
      <trkpt lat="49.74706" lon="2.32678">
        <ele>114.5</ele>
        <time>2013-03-17T08:51:34Z</time>
      </trkpt>
      <trkpt lat="49.7471" lon="2.3266">
        <ele>111.2</ele>
        <time>2013-03-17T08:51:43Z</time>
      </trkpt>
      <trkpt lat="49.7472" lon="2.32655">
        <ele>112.8</ele>
        <time>2013-03-17T08:51:55Z</time>
      </trkpt>
      <trkpt lat="49.7473" lon="2.32612">
        <ele>104.3</ele>
        <time>2013-03-17T08:52:13Z</time>
      </trkpt>
      <trkpt lat="49.7473" lon="2.32612">
        <ele>104.3</ele>
        <time>2013-03-17T08:52:46Z</time>
      </trkpt>
      <trkpt lat="49.74737" lon="2.32591">
        <ele>98.5</ele>
        <time>2013-03-17T08:52:52Z</time>
      </trkpt>
      <trkpt lat="49.74743" lon="2.32571">
        <ele>103.2</ele>
        <time>2013-03-17T08:53:03Z</time>
      </trkpt>
      <trkpt lat="49.74752" lon="2.32555">
        <ele>104.1</ele>
        <time>2013-03-17T08:53:14Z</time>
      </trkpt>
      <trkpt lat="49.74757" lon="2.32533">
        <ele>105</ele>
        <time>2013-03-17T08:53:24Z</time>
      </trkpt>
      <trkpt lat="49.74756" lon="2.32511">
        <ele>108.9</ele>
        <time>2013-03-17T08:53:36Z</time>
      </trkpt>
      <trkpt lat="49.74764" lon="2.32493">
        <ele>108.1</ele>
        <time>2013-03-17T08:53:46Z</time>
      </trkpt>
      <trkpt lat="49.74775" lon="2.32478">
        <ele>107</ele>
        <time>2013-03-17T08:53:59Z</time>
      </trkpt>
      <trkpt lat="49.74783" lon="2.3246">
        <ele>104.6</ele>
        <time>2013-03-17T08:54:08Z</time>
      </trkpt>
      <trkpt lat="49.7479" lon="2.3244">
        <ele>105.2</ele>
        <time>2013-03-17T08:54:17Z</time>
      </trkpt>
      <trkpt lat="49.74795" lon="2.32421">
        <ele>106.8</ele>
        <time>2013-03-17T08:54:26Z</time>
      </trkpt>
      <trkpt lat="49.74803" lon="2.32405">
        <ele>107.2</ele>
        <time>2013-03-17T08:54:36Z</time>
      </trkpt>
      <trkpt lat="49.74811" lon="2.32387">
        <ele>104.6</ele>
        <time>2013-03-17T08:54:47Z</time>
      </trkpt>
      <trkpt lat="49.74817" lon="2.32366">
        <ele>103.2</ele>
        <time>2013-03-17T08:54:58Z</time>
      </trkpt>
      <trkpt lat="49.74821" lon="2.32346">
        <ele>101.7</ele>
        <time>2013-03-17T08:55:09Z</time>
      </trkpt>
      <trkpt lat="49.74827" lon="2.32327">
        <ele>100</ele>
        <time>2013-03-17T08:55:22Z</time>
      </trkpt>
      <trkpt lat="49.74833" lon="2.32308">
        <ele>96.7</ele>
        <time>2013-03-17T08:55:32Z</time>
      </trkpt>
      <trkpt lat="49.74836" lon="2.32304">
        <ele>95.8</ele>
        <time>2013-03-17T08:55:37Z</time>
      </trkpt>
      <trkpt lat="49.74831" lon="2.32283">
        <ele>95.2</ele>
        <time>2013-03-17T08:55:45Z</time>
      </trkpt>
      <trkpt lat="49.74834" lon="2.32261">
        <ele>94.6</ele>
        <time>2013-03-17T08:55:54Z</time>
      </trkpt>
      <trkpt lat="49.74827" lon="2.32244">
        <ele>94.2</ele>
        <time>2013-03-17T08:56:00Z</time>
      </trkpt>
      <trkpt lat="49.74822" lon="2.32223">
        <ele>93.5</ele>
        <time>2013-03-17T08:56:11Z</time>
      </trkpt>
      <trkpt lat="49.74823" lon="2.322">
        <ele>91.5</ele>
        <time>2013-03-17T08:56:22Z</time>
      </trkpt>
      <trkpt lat="49.74826" lon="2.32178">
        <ele>89.5</ele>
        <time>2013-03-17T08:56:32Z</time>
      </trkpt>
      <trkpt lat="49.74828" lon="2.32157">
        <ele>87.3</ele>
        <time>2013-03-17T08:56:43Z</time>
      </trkpt>
      <trkpt lat="49.74828" lon="2.32136">
        <ele>86.5</ele>
        <time>2013-03-17T08:56:52Z</time>
      </trkpt>
      <trkpt lat="49.74825" lon="2.32115">
        <ele>86.7</ele>
        <time>2013-03-17T08:57:00Z</time>
      </trkpt>
      <trkpt lat="49.74829" lon="2.32094">
        <ele>86.6</ele>
        <time>2013-03-17T08:57:13Z</time>
      </trkpt>
      <trkpt lat="49.7483" lon="2.32072">
        <ele>86.5</ele>
        <time>2013-03-17T08:57:22Z</time>
      </trkpt>
      <trkpt lat="49.74833" lon="2.32063">
        <ele>83.7</ele>
        <time>2013-03-17T08:57:32Z</time>
      </trkpt>
      <trkpt lat="49.74842" lon="2.32057">
        <ele>80.7</ele>
        <time>2013-03-17T08:57:40Z</time>
      </trkpt>
      <trkpt lat="49.74838" lon="2.32036">
        <ele>77</ele>
        <time>2013-03-17T08:57:49Z</time>
      </trkpt>
      <trkpt lat="49.74838" lon="2.32014">
        <ele>77.7</ele>
        <time>2013-03-17T08:57:58Z</time>
      </trkpt>
      <trkpt lat="49.74836" lon="2.31993">
        <ele>78.6</ele>
        <time>2013-03-17T08:58:08Z</time>
      </trkpt>
      <trkpt lat="49.74833" lon="2.31971">
        <ele>80.9</ele>
        <time>2013-03-17T08:58:17Z</time>
      </trkpt>
      <trkpt lat="49.74835" lon="2.3195">
        <ele>82.6</ele>
        <time>2013-03-17T08:58:27Z</time>
      </trkpt>
      <trkpt lat="49.74835" lon="2.31929">
        <ele>83.7</ele>
        <time>2013-03-17T08:58:39Z</time>
      </trkpt>
      <trkpt lat="49.74832" lon="2.3192">
        <ele>84.5</ele>
        <time>2013-03-17T08:58:48Z</time>
      </trkpt>
      <trkpt lat="49.74843" lon="2.31906">
        <ele>85.4</ele>
        <time>2013-03-17T08:58:58Z</time>
      </trkpt>
      <trkpt lat="49.74845" lon="2.31888">
        <ele>88.4</ele>
        <time>2013-03-17T08:59:08Z</time>
      </trkpt>
      <trkpt lat="49.74842" lon="2.31868">
        <ele>85.6</ele>
        <time>2013-03-17T08:59:18Z</time>
      </trkpt>
      <trkpt lat="49.74844" lon="2.31861">
        <ele>85.1</ele>
        <time>2013-03-17T08:59:24Z</time>
      </trkpt>
      <trkpt lat="49.74834" lon="2.31845">
        <ele>84.6</ele>
        <time>2013-03-17T08:59:29Z</time>
      </trkpt>
      <trkpt lat="49.74832" lon="2.31824">
        <ele>83.5</ele>
        <time>2013-03-17T08:59:41Z</time>
      </trkpt>
      <trkpt lat="49.74831" lon="2.31803">
        <ele>84</ele>
        <time>2013-03-17T08:59:52Z</time>
      </trkpt>
      <trkpt lat="49.74824" lon="2.31784">
        <ele>86</ele>
        <time>2013-03-17T09:00:03Z</time>
      </trkpt>
      <trkpt lat="49.74817" lon="2.31766">
        <ele>88</ele>
        <time>2013-03-17T09:00:13Z</time>
      </trkpt>
      <trkpt lat="49.74811" lon="2.31747">
        <ele>86.6</ele>
        <time>2013-03-17T09:00:23Z</time>
      </trkpt>
      <trkpt lat="49.74807" lon="2.31725">
        <ele>84.9</ele>
        <time>2013-03-17T09:00:35Z</time>
      </trkpt>
      <trkpt lat="49.748" lon="2.31706">
        <ele>84.7</ele>
        <time>2013-03-17T09:00:45Z</time>
      </trkpt>
      <trkpt lat="49.74799" lon="2.31685">
        <ele>87.1</ele>
        <time>2013-03-17T09:01:01Z</time>
      </trkpt>
      <trkpt lat="49.74799" lon="2.31664">
        <ele>87.7</ele>
        <time>2013-03-17T09:01:13Z</time>
      </trkpt>
      <trkpt lat="49.74793" lon="2.31643">
        <ele>88.4</ele>
        <time>2013-03-17T09:01:27Z</time>
      </trkpt>
      <trkpt lat="49.7479" lon="2.31623">
        <ele>89.1</ele>
        <time>2013-03-17T09:01:41Z</time>
      </trkpt>
      <trkpt lat="49.74787" lon="2.31602">
        <ele>89.7</ele>
        <time>2013-03-17T09:01:54Z</time>
      </trkpt>
      <trkpt lat="49.74788" lon="2.31581">
        <ele>90.3</ele>
        <time>2013-03-17T09:02:07Z</time>
      </trkpt>
      <trkpt lat="49.74787" lon="2.31559">
        <ele>90.9</ele>
        <time>2013-03-17T09:02:19Z</time>
      </trkpt>
      <trkpt lat="49.74784" lon="2.31537">
        <ele>89.8</ele>
        <time>2013-03-17T09:02:30Z</time>
      </trkpt>
      <trkpt lat="49.74785" lon="2.31515">
        <ele>88.1</ele>
        <time>2013-03-17T09:02:42Z</time>
      </trkpt>
      <trkpt lat="49.74782" lon="2.31493">
        <ele>86</ele>
        <time>2013-03-17T09:02:58Z</time>
      </trkpt>
      <trkpt lat="49.74788" lon="2.31473">
        <ele>83.9</ele>
        <time>2013-03-17T09:03:08Z</time>
      </trkpt>
      <trkpt lat="49.7479" lon="2.31452">
        <ele>81.8</ele>
        <time>2013-03-17T09:03:20Z</time>
      </trkpt>
      <trkpt lat="49.74791" lon="2.3143">
        <ele>84.2</ele>
        <time>2013-03-17T09:03:31Z</time>
      </trkpt>
      <trkpt lat="49.74793" lon="2.31409">
        <ele>86.5</ele>
        <time>2013-03-17T09:03:42Z</time>
      </trkpt>
      <trkpt lat="49.74797" lon="2.31388">
        <ele>89.1</ele>
        <time>2013-03-17T09:03:52Z</time>
      </trkpt>
      <trkpt lat="49.74792" lon="2.31368">
        <ele>93.2</ele>
        <time>2013-03-17T09:04:03Z</time>
      </trkpt>
      <trkpt lat="49.74795" lon="2.31347">
        <ele>94.3</ele>
        <time>2013-03-17T09:04:10Z</time>
      </trkpt>
      <trkpt lat="49.74801" lon="2.31327">
        <ele>94.9</ele>
        <time>2013-03-17T09:04:21Z</time>
      </trkpt>
      <trkpt lat="49.74812" lon="2.31312">
        <ele>93.8</ele>
        <time>2013-03-17T09:04:32Z</time>
      </trkpt>
      <trkpt lat="49.74807" lon="2.31291">
        <ele>93.4</ele>
        <time>2013-03-17T09:04:41Z</time>
      </trkpt>
      <trkpt lat="49.74804" lon="2.3127">
        <ele>93.1</ele>
        <time>2013-03-17T09:04:52Z</time>
      </trkpt>
      <trkpt lat="49.74806" lon="2.31248">
        <ele>93.8</ele>
        <time>2013-03-17T09:05:07Z</time>
      </trkpt>
      <trkpt lat="49.74807" lon="2.31227">
        <ele>94.4</ele>
        <time>2013-03-17T09:05:21Z</time>
      </trkpt>
      <trkpt lat="49.74804" lon="2.31206">
        <ele>94.9</ele>
        <time>2013-03-17T09:05:32Z</time>
      </trkpt>
      <trkpt lat="49.74802" lon="2.31185">
        <ele>95.3</ele>
        <time>2013-03-17T09:05:41Z</time>
      </trkpt>
      <trkpt lat="49.74797" lon="2.31165">
        <ele>95.4</ele>
        <time>2013-03-17T09:05:57Z</time>
      </trkpt>
      <trkpt lat="49.74796" lon="2.31144">
        <ele>94.2</ele>
        <time>2013-03-17T09:06:09Z</time>
      </trkpt>
      <trkpt lat="49.74791" lon="2.31124">
        <ele>95.7</ele>
        <time>2013-03-17T09:06:19Z</time>
      </trkpt>
      <trkpt lat="49.74792" lon="2.31103">
        <ele>96.8</ele>
        <time>2013-03-17T09:06:31Z</time>
      </trkpt>
      <trkpt lat="49.74794" lon="2.31082">
        <ele>96</ele>
        <time>2013-03-17T09:06:47Z</time>
      </trkpt>
      <trkpt lat="49.74791" lon="2.31031">
        <ele>95.4</ele>
        <time>2013-03-17T09:06:57Z</time>
      </trkpt>
      <trkpt lat="49.74783" lon="2.3104">
        <ele>95.4</ele>
        <time>2013-03-17T09:06:58Z</time>
      </trkpt>
      <trkpt lat="49.74772" lon="2.31042">
        <ele>95.1</ele>
        <time>2013-03-17T09:07:02Z</time>
      </trkpt>
      <trkpt lat="49.74782" lon="2.31037">
        <ele>93.2</ele>
        <time>2013-03-17T09:07:13Z</time>
      </trkpt>
      <trkpt lat="49.74782" lon="2.31037">
        <ele>93.2</ele>
        <time>2013-03-17T09:09:51Z</time>
      </trkpt>
      <trkpt lat="49.7479" lon="2.31021">
        <ele>91.8</ele>
        <time>2013-03-17T09:09:59Z</time>
      </trkpt>
      <trkpt lat="49.74778" lon="2.31031">
        <ele>93.1</ele>
        <time>2013-03-17T09:10:15Z</time>
      </trkpt>
      <trkpt lat="49.74765" lon="2.31042">
        <ele>94.9</ele>
        <time>2013-03-17T09:10:32Z</time>
      </trkpt>
      <trkpt lat="49.74751" lon="2.31047">
        <ele>98.3</ele>
        <time>2013-03-17T09:10:42Z</time>
      </trkpt>
      <trkpt lat="49.74737" lon="2.31053">
        <ele>99.4</ele>
        <time>2013-03-17T09:10:54Z</time>
      </trkpt>
      <trkpt lat="49.74724" lon="2.31059">
        <ele>101</ele>
        <time>2013-03-17T09:11:12Z</time>
      </trkpt>
      <trkpt lat="49.7471" lon="2.31063">
        <ele>102.8</ele>
        <time>2013-03-17T09:11:22Z</time>
      </trkpt>
      <trkpt lat="49.74695" lon="2.31066">
        <ele>104.5</ele>
        <time>2013-03-17T09:11:31Z</time>
      </trkpt>
      <trkpt lat="49.74682" lon="2.31072">
        <ele>105.3</ele>
        <time>2013-03-17T09:11:39Z</time>
      </trkpt>
      <trkpt lat="49.74668" lon="2.31074">
        <ele>106.5</ele>
        <time>2013-03-17T09:11:54Z</time>
      </trkpt>
      <trkpt lat="49.74656" lon="2.31082">
        <ele>109.4</ele>
        <time>2013-03-17T09:12:14Z</time>
      </trkpt>
      <trkpt lat="49.74641" lon="2.31081">
        <ele>110</ele>
        <time>2013-03-17T09:12:32Z</time>
      </trkpt>
      <trkpt lat="49.74629" lon="2.31093">
        <ele>118.5</ele>
        <time>2013-03-17T09:12:48Z</time>
      </trkpt>
      <trkpt lat="49.74618" lon="2.31106">
        <ele>120.1</ele>
        <time>2013-03-17T09:13:01Z</time>
      </trkpt>
      <trkpt lat="49.74606" lon="2.31117">
        <ele>121.3</ele>
        <time>2013-03-17T09:13:14Z</time>
      </trkpt>
      <trkpt lat="49.74596" lon="2.31134">
        <ele>122.4</ele>
        <time>2013-03-17T09:13:26Z</time>
      </trkpt>
      <trkpt lat="49.74584" lon="2.31142">
        <ele>123</ele>
        <time>2013-03-17T09:13:35Z</time>
      </trkpt>
      <trkpt lat="49.74573" lon="2.31154">
        <ele>123.4</ele>
        <time>2013-03-17T09:13:47Z</time>
      </trkpt>
      <trkpt lat="49.74565" lon="2.31171">
        <ele>125.2</ele>
        <time>2013-03-17T09:14:04Z</time>
      </trkpt>
      <trkpt lat="49.74555" lon="2.31187">
        <ele>126.2</ele>
        <time>2013-03-17T09:14:14Z</time>
      </trkpt>
      <trkpt lat="49.74545" lon="2.31202">
        <ele>127</ele>
        <time>2013-03-17T09:14:23Z</time>
      </trkpt>
      <trkpt lat="49.74535" lon="2.31218">
        <ele>127.2</ele>
        <time>2013-03-17T09:14:34Z</time>
      </trkpt>
      <trkpt lat="49.74523" lon="2.31229">
        <ele>130.3</ele>
        <time>2013-03-17T09:14:47Z</time>
      </trkpt>
      <trkpt lat="49.74514" lon="2.31246">
        <ele>131.8</ele>
        <time>2013-03-17T09:14:59Z</time>
      </trkpt>
      <trkpt lat="49.74505" lon="2.31263">
        <ele>129.2</ele>
        <time>2013-03-17T09:15:14Z</time>
      </trkpt>
      <trkpt lat="49.74496" lon="2.31281">
        <ele>130.4</ele>
        <time>2013-03-17T09:15:25Z</time>
      </trkpt>
      <trkpt lat="49.74488" lon="2.313">
        <ele>131.3</ele>
        <time>2013-03-17T09:15:34Z</time>
      </trkpt>
      <trkpt lat="49.74488" lon="2.31323">
        <ele>132.7</ele>
        <time>2013-03-17T09:15:47Z</time>
      </trkpt>
      <trkpt lat="49.74483" lon="2.31343">
        <ele>131.1</ele>
        <time>2013-03-17T09:16:03Z</time>
      </trkpt>
      <trkpt lat="49.74472" lon="2.31357">
        <ele>129.9</ele>
        <time>2013-03-17T09:16:12Z</time>
      </trkpt>
      <trkpt lat="49.74459" lon="2.31367">
        <ele>130.4</ele>
        <time>2013-03-17T09:16:23Z</time>
      </trkpt>
      <trkpt lat="49.74445" lon="2.31371">
        <ele>132.5</ele>
        <time>2013-03-17T09:16:31Z</time>
      </trkpt>
      <trkpt lat="49.74432" lon="2.31379">
        <ele>134.7</ele>
        <time>2013-03-17T09:16:39Z</time>
      </trkpt>
      <trkpt lat="49.7442" lon="2.3139">
        <ele>133.5</ele>
        <time>2013-03-17T09:16:46Z</time>
      </trkpt>
      <trkpt lat="49.74408" lon="2.31399">
        <ele>129.6</ele>
        <time>2013-03-17T09:17:03Z</time>
      </trkpt>
      <trkpt lat="49.74395" lon="2.31388">
        <ele>129.8</ele>
        <time>2013-03-17T09:17:16Z</time>
      </trkpt>
      <trkpt lat="49.74381" lon="2.31388">
        <ele>131.3</ele>
        <time>2013-03-17T09:17:30Z</time>
      </trkpt>
      <trkpt lat="49.74367" lon="2.31387">
        <ele>131.7</ele>
        <time>2013-03-17T09:17:43Z</time>
      </trkpt>
      <trkpt lat="49.74352" lon="2.31383">
        <ele>132.2</ele>
        <time>2013-03-17T09:17:59Z</time>
      </trkpt>
      <trkpt lat="49.74337" lon="2.31381">
        <ele>132.3</ele>
        <time>2013-03-17T09:18:03Z</time>
      </trkpt>
      <trkpt lat="49.74321" lon="2.31383">
        <ele>132.4</ele>
        <time>2013-03-17T09:18:07Z</time>
      </trkpt>
      <trkpt lat="49.74316" lon="2.31391">
        <ele>132.6</ele>
        <time>2013-03-17T09:18:14Z</time>
      </trkpt>
      <trkpt lat="49.74315" lon="2.314">
        <ele>132.9</ele>
        <time>2013-03-17T09:18:24Z</time>
      </trkpt>
      <trkpt lat="49.74301" lon="2.31399">
        <ele>133.2</ele>
        <time>2013-03-17T09:18:35Z</time>
      </trkpt>
      <trkpt lat="49.74287" lon="2.31397">
        <ele>133.6</ele>
        <time>2013-03-17T09:18:47Z</time>
      </trkpt>
      <trkpt lat="49.74271" lon="2.31402">
        <ele>133.8</ele>
        <time>2013-03-17T09:18:53Z</time>
      </trkpt>
      <trkpt lat="49.74256" lon="2.31404">
        <ele>134</ele>
        <time>2013-03-17T09:19:01Z</time>
      </trkpt>
      <trkpt lat="49.74249" lon="2.31401">
        <ele>132.4</ele>
        <time>2013-03-17T09:19:13Z</time>
      </trkpt>
      <trkpt lat="49.74254" lon="2.31396">
        <ele>130.9</ele>
        <time>2013-03-17T09:19:24Z</time>
      </trkpt>
      <trkpt lat="49.74241" lon="2.31402">
        <ele>136.9</ele>
        <time>2013-03-17T09:19:34Z</time>
      </trkpt>
      <trkpt lat="49.74228" lon="2.31412">
        <ele>139.9</ele>
        <time>2013-03-17T09:19:44Z</time>
      </trkpt>
      <trkpt lat="49.74214" lon="2.31413">
        <ele>138.8</ele>
        <time>2013-03-17T09:19:52Z</time>
      </trkpt>
      <trkpt lat="49.74199" lon="2.31409">
        <ele>137.7</ele>
        <time>2013-03-17T09:20:00Z</time>
      </trkpt>
      <trkpt lat="49.74185" lon="2.31412">
        <ele>137.4</ele>
        <time>2013-03-17T09:20:13Z</time>
      </trkpt>
      <trkpt lat="49.74171" lon="2.31409">
        <ele>137.8</ele>
        <time>2013-03-17T09:20:23Z</time>
      </trkpt>
      <trkpt lat="49.74157" lon="2.31414">
        <ele>135</ele>
        <time>2013-03-17T09:20:32Z</time>
      </trkpt>
      <trkpt lat="49.74148" lon="2.31417">
        <ele>133.9</ele>
        <time>2013-03-17T09:20:42Z</time>
      </trkpt>
      <trkpt lat="49.74135" lon="2.31419">
        <ele>132.6</ele>
        <time>2013-03-17T09:20:54Z</time>
      </trkpt>
      <trkpt lat="49.74121" lon="2.31417">
        <ele>130.7</ele>
        <time>2013-03-17T09:21:07Z</time>
      </trkpt>
      <trkpt lat="49.74107" lon="2.31412">
        <ele>130.6</ele>
        <time>2013-03-17T09:21:17Z</time>
      </trkpt>
      <trkpt lat="49.74094" lon="2.31417">
        <ele>131.3</ele>
        <time>2013-03-17T09:21:25Z</time>
      </trkpt>
      <trkpt lat="49.7408" lon="2.31422">
        <ele>131.8</ele>
        <time>2013-03-17T09:21:34Z</time>
      </trkpt>
      <trkpt lat="49.74066" lon="2.31422">
        <ele>131.1</ele>
        <time>2013-03-17T09:21:42Z</time>
      </trkpt>
      <trkpt lat="49.74054" lon="2.31434">
        <ele>130.2</ele>
        <time>2013-03-17T09:21:52Z</time>
      </trkpt>
      <trkpt lat="49.7404" lon="2.3144">
        <ele>129.4</ele>
        <time>2013-03-17T09:22:01Z</time>
      </trkpt>
      <trkpt lat="49.74026" lon="2.31434">
        <ele>127.5</ele>
        <time>2013-03-17T09:22:13Z</time>
      </trkpt>
      <trkpt lat="49.74012" lon="2.31434">
        <ele>125.7</ele>
        <time>2013-03-17T09:22:23Z</time>
      </trkpt>
      <trkpt lat="49.73998" lon="2.31436">
        <ele>122.2</ele>
        <time>2013-03-17T09:22:38Z</time>
      </trkpt>
      <trkpt lat="49.73985" lon="2.31438">
        <ele>120.1</ele>
        <time>2013-03-17T09:22:47Z</time>
      </trkpt>
      <trkpt lat="49.73971" lon="2.31435">
        <ele>116.6</ele>
        <time>2013-03-17T09:23:02Z</time>
      </trkpt>
      <trkpt lat="49.73957" lon="2.31433">
        <ele>112.9</ele>
        <time>2013-03-17T09:23:13Z</time>
      </trkpt>
      <trkpt lat="49.73942" lon="2.31434">
        <ele>111</ele>
        <time>2013-03-17T09:23:23Z</time>
      </trkpt>
      <trkpt lat="49.73928" lon="2.31439">
        <ele>111.7</ele>
        <time>2013-03-17T09:23:34Z</time>
      </trkpt>
      <trkpt lat="49.73913" lon="2.31444">
        <ele>112.5</ele>
        <time>2013-03-17T09:23:43Z</time>
      </trkpt>
      <trkpt lat="49.73899" lon="2.31448">
        <ele>113.5</ele>
        <time>2013-03-17T09:23:54Z</time>
      </trkpt>
      <trkpt lat="49.73885" lon="2.3145">
        <ele>113.5</ele>
        <time>2013-03-17T09:24:07Z</time>
      </trkpt>
      <trkpt lat="49.7387" lon="2.31454">
        <ele>112.9</ele>
        <time>2013-03-17T09:24:16Z</time>
      </trkpt>
      <trkpt lat="49.73857" lon="2.31457">
        <ele>112.2</ele>
        <time>2013-03-17T09:24:28Z</time>
      </trkpt>
      <trkpt lat="49.73843" lon="2.31462">
        <ele>111.4</ele>
        <time>2013-03-17T09:24:40Z</time>
      </trkpt>
      <trkpt lat="49.73829" lon="2.31462">
        <ele>110.6</ele>
        <time>2013-03-17T09:24:52Z</time>
      </trkpt>
      <trkpt lat="49.73814" lon="2.31466">
        <ele>110.1</ele>
        <time>2013-03-17T09:25:01Z</time>
      </trkpt>
      <trkpt lat="49.738" lon="2.31471">
        <ele>109.3</ele>
        <time>2013-03-17T09:25:11Z</time>
      </trkpt>
      <trkpt lat="49.73786" lon="2.31464">
        <ele>108.5</ele>
        <time>2013-03-17T09:25:21Z</time>
      </trkpt>
      <trkpt lat="49.73773" lon="2.31466">
        <ele>107.7</ele>
        <time>2013-03-17T09:25:31Z</time>
      </trkpt>
      <trkpt lat="49.73758" lon="2.31466">
        <ele>106.8</ele>
        <time>2013-03-17T09:25:42Z</time>
      </trkpt>
      <trkpt lat="49.73744" lon="2.31471">
        <ele>106.3</ele>
        <time>2013-03-17T09:25:52Z</time>
      </trkpt>
      <trkpt lat="49.7373" lon="2.31469">
        <ele>105</ele>
        <time>2013-03-17T09:26:18Z</time>
      </trkpt>
      <trkpt lat="49.73717" lon="2.31475">
        <ele>104.3</ele>
        <time>2013-03-17T09:26:31Z</time>
      </trkpt>
      <trkpt lat="49.73704" lon="2.31485">
        <ele>104.4</ele>
        <time>2013-03-17T09:26:46Z</time>
      </trkpt>
      <trkpt lat="49.7369" lon="2.31491">
        <ele>105.1</ele>
        <time>2013-03-17T09:27:01Z</time>
      </trkpt>
      <trkpt lat="49.73677" lon="2.31495">
        <ele>105.4</ele>
        <time>2013-03-17T09:27:09Z</time>
      </trkpt>
      <trkpt lat="49.73663" lon="2.315">
        <ele>105.8</ele>
        <time>2013-03-17T09:27:18Z</time>
      </trkpt>
      <trkpt lat="49.7365" lon="2.31508">
        <ele>106.4</ele>
        <time>2013-03-17T09:27:31Z</time>
      </trkpt>
      <trkpt lat="49.73634" lon="2.31517">
        <ele>106.9</ele>
        <time>2013-03-17T09:27:41Z</time>
      </trkpt>
      <trkpt lat="49.73621" lon="2.31523">
        <ele>107.5</ele>
        <time>2013-03-17T09:27:51Z</time>
      </trkpt>
      <trkpt lat="49.73607" lon="2.3153">
        <ele>108.4</ele>
        <time>2013-03-17T09:28:03Z</time>
      </trkpt>
      <trkpt lat="49.73594" lon="2.31535">
        <ele>108.9</ele>
        <time>2013-03-17T09:28:11Z</time>
      </trkpt>
      <trkpt lat="49.7358" lon="2.31537">
        <ele>110.2</ele>
        <time>2013-03-17T09:28:29Z</time>
      </trkpt>
      <trkpt lat="49.73564" lon="2.31541">
        <ele>110.6</ele>
        <time>2013-03-17T09:28:34Z</time>
      </trkpt>
      <trkpt lat="49.73551" lon="2.31542">
        <ele>111.4</ele>
        <time>2013-03-17T09:28:46Z</time>
      </trkpt>
      <trkpt lat="49.73544" lon="2.31557">
        <ele>112</ele>
        <time>2013-03-17T09:28:54Z</time>
      </trkpt>
      <trkpt lat="49.7353" lon="2.31563">
        <ele>112.4</ele>
        <time>2013-03-17T09:28:59Z</time>
      </trkpt>
      <trkpt lat="49.73518" lon="2.31574">
        <ele>112.9</ele>
        <time>2013-03-17T09:29:07Z</time>
      </trkpt>
      <trkpt lat="49.73501" lon="2.31576">
        <ele>113.8</ele>
        <time>2013-03-17T09:29:19Z</time>
      </trkpt>
      <trkpt lat="49.73487" lon="2.31582">
        <ele>112.6</ele>
        <time>2013-03-17T09:29:25Z</time>
      </trkpt>
      <trkpt lat="49.73478" lon="2.31575">
        <ele>108.8</ele>
        <time>2013-03-17T09:29:33Z</time>
      </trkpt>
      <trkpt lat="49.73465" lon="2.31582">
        <ele>106.5</ele>
        <time>2013-03-17T09:29:38Z</time>
      </trkpt>
      <trkpt lat="49.73451" lon="2.31588">
        <ele>104.2</ele>
        <time>2013-03-17T09:29:49Z</time>
      </trkpt>
      <trkpt lat="49.73438" lon="2.31599">
        <ele>100</ele>
        <time>2013-03-17T09:30:14Z</time>
      </trkpt>
      <trkpt lat="49.73431" lon="2.31601">
        <ele>100.4</ele>
        <time>2013-03-17T09:30:21Z</time>
      </trkpt>
      <trkpt lat="49.73436" lon="2.31608">
        <ele>101.7</ele>
        <time>2013-03-17T09:30:36Z</time>
      </trkpt>
      <trkpt lat="49.73421" lon="2.31611">
        <ele>100.3</ele>
        <time>2013-03-17T09:30:47Z</time>
      </trkpt>
      <trkpt lat="49.73414" lon="2.31612">
        <ele>97.2</ele>
        <time>2013-03-17T09:31:01Z</time>
      </trkpt>
      <trkpt lat="49.734" lon="2.31617">
        <ele>95.9</ele>
        <time>2013-03-17T09:31:13Z</time>
      </trkpt>
      <trkpt lat="49.73388" lon="2.31627">
        <ele>94.2</ele>
        <time>2013-03-17T09:31:29Z</time>
      </trkpt>
      <trkpt lat="49.73376" lon="2.31636">
        <ele>96</ele>
        <time>2013-03-17T09:31:46Z</time>
      </trkpt>
      <trkpt lat="49.73372" lon="2.31648">
        <ele>95.7</ele>
        <time>2013-03-17T09:31:55Z</time>
      </trkpt>
      <trkpt lat="49.73359" lon="2.31644">
        <ele>90.7</ele>
        <time>2013-03-17T09:32:10Z</time>
      </trkpt>
      <trkpt lat="49.73345" lon="2.31646">
        <ele>87.6</ele>
        <time>2013-03-17T09:32:17Z</time>
      </trkpt>
      <trkpt lat="49.73321" lon="2.31654">
        <ele>83.2</ele>
        <time>2013-03-17T09:32:30Z</time>
      </trkpt>
      <trkpt lat="49.73321" lon="2.31654">
        <ele>83.2</ele>
        <time>2013-03-17T09:36:31Z</time>
      </trkpt>
      <trkpt lat="49.73312" lon="2.31662">
        <ele>80.9</ele>
        <time>2013-03-17T09:36:31Z</time>
      </trkpt>
      <trkpt lat="49.73315" lon="2.31669">
        <ele>80.4</ele>
        <time>2013-03-17T09:36:37Z</time>
      </trkpt>
      <trkpt lat="49.73301" lon="2.31669">
        <ele>79.7</ele>
        <time>2013-03-17T09:36:47Z</time>
      </trkpt>
      <trkpt lat="49.73289" lon="2.31674">
        <ele>78.9</ele>
        <time>2013-03-17T09:36:57Z</time>
      </trkpt>
      <trkpt lat="49.73281" lon="2.31692">
        <ele>77</ele>
        <time>2013-03-17T09:37:22Z</time>
      </trkpt>
      <trkpt lat="49.73274" lon="2.31704">
        <ele>76.5</ele>
        <time>2013-03-17T09:37:30Z</time>
      </trkpt>
      <trkpt lat="49.7326" lon="2.31703">
        <ele>76</ele>
        <time>2013-03-17T09:37:36Z</time>
      </trkpt>
      <trkpt lat="49.73248" lon="2.31716">
        <ele>75.7</ele>
        <time>2013-03-17T09:37:46Z</time>
      </trkpt>
      <trkpt lat="49.73247" lon="2.31737">
        <ele>75.2</ele>
        <time>2013-03-17T09:37:52Z</time>
      </trkpt>
      <trkpt lat="49.73234" lon="2.31747">
        <ele>74.1</ele>
        <time>2013-03-17T09:38:06Z</time>
      </trkpt>
      <trkpt lat="49.73219" lon="2.3175">
        <ele>73.1</ele>
        <time>2013-03-17T09:38:19Z</time>
      </trkpt>
      <trkpt lat="49.73209" lon="2.31764">
        <ele>73.9</ele>
        <time>2013-03-17T09:38:28Z</time>
      </trkpt>
      <trkpt lat="49.73199" lon="2.31779">
        <ele>75.1</ele>
        <time>2013-03-17T09:38:40Z</time>
      </trkpt>
      <trkpt lat="49.73189" lon="2.31794">
        <ele>76.2</ele>
        <time>2013-03-17T09:38:50Z</time>
      </trkpt>
      <trkpt lat="49.73184" lon="2.31801">
        <ele>76.8</ele>
        <time>2013-03-17T09:38:55Z</time>
      </trkpt>
      <trkpt lat="49.73174" lon="2.31815">
        <ele>78.4</ele>
        <time>2013-03-17T09:39:09Z</time>
      </trkpt>
      <trkpt lat="49.73165" lon="2.31832">
        <ele>79.4</ele>
        <time>2013-03-17T09:39:17Z</time>
      </trkpt>
      <trkpt lat="49.73152" lon="2.31842">
        <ele>80.9</ele>
        <time>2013-03-17T09:39:28Z</time>
      </trkpt>
      <trkpt lat="49.73143" lon="2.31858">
        <ele>82.6</ele>
        <time>2013-03-17T09:39:40Z</time>
      </trkpt>
      <trkpt lat="49.73131" lon="2.31871">
        <ele>84</ele>
        <time>2013-03-17T09:39:50Z</time>
      </trkpt>
      <trkpt lat="49.73122" lon="2.31887">
        <ele>85.4</ele>
        <time>2013-03-17T09:40:00Z</time>
      </trkpt>
      <trkpt lat="49.73116" lon="2.31906">
        <ele>88.6</ele>
        <time>2013-03-17T09:40:11Z</time>
      </trkpt>
      <trkpt lat="49.73107" lon="2.31923">
        <ele>88.9</ele>
        <time>2013-03-17T09:40:22Z</time>
      </trkpt>
      <trkpt lat="49.73098" lon="2.3194">
        <ele>86.6</ele>
        <time>2013-03-17T09:40:37Z</time>
      </trkpt>
      <trkpt lat="49.73088" lon="2.31941">
        <ele>87.7</ele>
        <time>2013-03-17T09:40:46Z</time>
      </trkpt>
      <trkpt lat="49.73083" lon="2.3196">
        <ele>88</ele>
        <time>2013-03-17T09:40:54Z</time>
      </trkpt>
      <trkpt lat="49.73074" lon="2.31979">
        <ele>91</ele>
        <time>2013-03-17T09:41:04Z</time>
      </trkpt>
      <trkpt lat="49.73065" lon="2.31996">
        <ele>91.7</ele>
        <time>2013-03-17T09:41:14Z</time>
      </trkpt>
      <trkpt lat="49.73056" lon="2.32013">
        <ele>92.5</ele>
        <time>2013-03-17T09:41:24Z</time>
      </trkpt>
      <trkpt lat="49.73046" lon="2.32029">
        <ele>93.4</ele>
        <time>2013-03-17T09:41:36Z</time>
      </trkpt>
      <trkpt lat="49.73035" lon="2.32041">
        <ele>94.4</ele>
        <time>2013-03-17T09:41:46Z</time>
      </trkpt>
      <trkpt lat="49.73025" lon="2.32058">
        <ele>96.4</ele>
        <time>2013-03-17T09:41:57Z</time>
      </trkpt>
      <trkpt lat="49.73016" lon="2.32075">
        <ele>97.5</ele>
        <time>2013-03-17T09:42:06Z</time>
      </trkpt>
      <trkpt lat="49.73007" lon="2.32093">
        <ele>98.3</ele>
        <time>2013-03-17T09:42:17Z</time>
      </trkpt>
      <trkpt lat="49.72998" lon="2.3211">
        <ele>99.1</ele>
        <time>2013-03-17T09:42:27Z</time>
      </trkpt>
      <trkpt lat="49.7299" lon="2.32128">
        <ele>99.9</ele>
        <time>2013-03-17T09:42:38Z</time>
      </trkpt>
      <trkpt lat="49.72982" lon="2.32147">
        <ele>98.7</ele>
        <time>2013-03-17T09:42:49Z</time>
      </trkpt>
      <trkpt lat="49.72973" lon="2.32164">
        <ele>97.8</ele>
        <time>2013-03-17T09:43:00Z</time>
      </trkpt>
      <trkpt lat="49.72965" lon="2.32181">
        <ele>97</ele>
        <time>2013-03-17T09:43:10Z</time>
      </trkpt>
      <trkpt lat="49.72954" lon="2.32193">
        <ele>96.1</ele>
        <time>2013-03-17T09:43:22Z</time>
      </trkpt>
      <trkpt lat="49.72939" lon="2.32199">
        <ele>95</ele>
        <time>2013-03-17T09:43:36Z</time>
      </trkpt>
      <trkpt lat="49.72927" lon="2.32211">
        <ele>92.5</ele>
        <time>2013-03-17T09:43:45Z</time>
      </trkpt>
      <trkpt lat="49.72919" lon="2.32228">
        <ele>93.9</ele>
        <time>2013-03-17T09:43:55Z</time>
      </trkpt>
      <trkpt lat="49.7291" lon="2.32244">
        <ele>95.2</ele>
        <time>2013-03-17T09:44:06Z</time>
      </trkpt>
      <trkpt lat="49.72899" lon="2.32258">
        <ele>95.9</ele>
        <time>2013-03-17T09:44:16Z</time>
      </trkpt>
      <trkpt lat="49.72892" lon="2.32277">
        <ele>96.6</ele>
        <time>2013-03-17T09:44:26Z</time>
      </trkpt>
      <trkpt lat="49.72885" lon="2.32296">
        <ele>97.4</ele>
        <time>2013-03-17T09:44:38Z</time>
      </trkpt>
      <trkpt lat="49.72875" lon="2.32312">
        <ele>96.9</ele>
        <time>2013-03-17T09:44:51Z</time>
      </trkpt>
      <trkpt lat="49.72868" lon="2.32332">
        <ele>94.2</ele>
        <time>2013-03-17T09:45:03Z</time>
      </trkpt>
      <trkpt lat="49.72868" lon="2.32353">
        <ele>98</ele>
        <time>2013-03-17T09:45:16Z</time>
      </trkpt>
      <trkpt lat="49.72867" lon="2.32376">
        <ele>95.7</ele>
        <time>2013-03-17T09:45:25Z</time>
      </trkpt>
      <trkpt lat="49.72865" lon="2.32396">
        <ele>94.7</ele>
        <time>2013-03-17T09:45:36Z</time>
      </trkpt>
      <trkpt lat="49.72868" lon="2.32417">
        <ele>96.1</ele>
        <time>2013-03-17T09:45:44Z</time>
      </trkpt>
      <trkpt lat="49.7287" lon="2.32437">
        <ele>97.9</ele>
        <time>2013-03-17T09:45:54Z</time>
      </trkpt>
      <trkpt lat="49.72875" lon="2.32458">
        <ele>99.8</ele>
        <time>2013-03-17T09:46:04Z</time>
      </trkpt>
      <trkpt lat="49.72879" lon="2.32479">
        <ele>99.8</ele>
        <time>2013-03-17T09:46:15Z</time>
      </trkpt>
      <trkpt lat="49.72878" lon="2.32501">
        <ele>99.4</ele>
        <time>2013-03-17T09:46:28Z</time>
      </trkpt>
      <trkpt lat="49.7288" lon="2.32523">
        <ele>99.2</ele>
        <time>2013-03-17T09:46:39Z</time>
      </trkpt>
      <trkpt lat="49.72881" lon="2.32544">
        <ele>98.9</ele>
        <time>2013-03-17T09:46:50Z</time>
      </trkpt>
      <trkpt lat="49.72883" lon="2.32566">
        <ele>98.6</ele>
        <time>2013-03-17T09:47:01Z</time>
      </trkpt>
      <trkpt lat="49.72883" lon="2.32589">
        <ele>98.3</ele>
        <time>2013-03-17T09:47:12Z</time>
      </trkpt>
      <trkpt lat="49.72883" lon="2.3261">
        <ele>98.1</ele>
        <time>2013-03-17T09:47:22Z</time>
      </trkpt>
      <trkpt lat="49.72884" lon="2.32631">
        <ele>97.8</ele>
        <time>2013-03-17T09:47:33Z</time>
      </trkpt>
      <trkpt lat="49.72883" lon="2.32652">
        <ele>97.5</ele>
        <time>2013-03-17T09:47:44Z</time>
      </trkpt>
      <trkpt lat="49.72884" lon="2.32674">
        <ele>97.3</ele>
        <time>2013-03-17T09:47:54Z</time>
      </trkpt>
      <trkpt lat="49.72884" lon="2.32696">
        <ele>97</ele>
        <time>2013-03-17T09:48:04Z</time>
      </trkpt>
      <trkpt lat="49.7288" lon="2.32717">
        <ele>95.4</ele>
        <time>2013-03-17T09:48:15Z</time>
      </trkpt>
      <trkpt lat="49.72874" lon="2.32735">
        <ele>94.1</ele>
        <time>2013-03-17T09:48:24Z</time>
      </trkpt>
      <trkpt lat="49.72873" lon="2.32757">
        <ele>95.6</ele>
        <time>2013-03-17T09:48:34Z</time>
      </trkpt>
      <trkpt lat="49.72872" lon="2.32778">
        <ele>97.1</ele>
        <time>2013-03-17T09:48:45Z</time>
      </trkpt>
      <trkpt lat="49.72872" lon="2.32799">
        <ele>97.9</ele>
        <time>2013-03-17T09:48:53Z</time>
      </trkpt>
      <trkpt lat="49.72867" lon="2.3282">
        <ele>97.1</ele>
        <time>2013-03-17T09:49:03Z</time>
      </trkpt>
      <trkpt lat="49.72864" lon="2.32841">
        <ele>96.3</ele>
        <time>2013-03-17T09:49:14Z</time>
      </trkpt>
      <trkpt lat="49.72861" lon="2.32863">
        <ele>95.4</ele>
        <time>2013-03-17T09:49:26Z</time>
      </trkpt>
      <trkpt lat="49.72857" lon="2.32885">
        <ele>95.3</ele>
        <time>2013-03-17T09:49:38Z</time>
      </trkpt>
      <trkpt lat="49.72853" lon="2.32906">
        <ele>95.8</ele>
        <time>2013-03-17T09:49:49Z</time>
      </trkpt>
      <trkpt lat="49.72849" lon="2.32927">
        <ele>96.3</ele>
        <time>2013-03-17T09:50:00Z</time>
      </trkpt>
      <trkpt lat="49.72849" lon="2.3295">
        <ele>96.8</ele>
        <time>2013-03-17T09:50:11Z</time>
      </trkpt>
      <trkpt lat="49.72853" lon="2.3297">
        <ele>97</ele>
        <time>2013-03-17T09:50:16Z</time>
      </trkpt>
      <trkpt lat="49.72843" lon="2.32987">
        <ele>97.5</ele>
        <time>2013-03-17T09:50:27Z</time>
      </trkpt>
      <trkpt lat="49.72837" lon="2.33006">
        <ele>97.9</ele>
        <time>2013-03-17T09:50:36Z</time>
      </trkpt>
      <trkpt lat="49.72828" lon="2.33024">
        <ele>98.5</ele>
        <time>2013-03-17T09:50:48Z</time>
      </trkpt>
      <trkpt lat="49.72825" lon="2.33045">
        <ele>99</ele>
        <time>2013-03-17T09:50:59Z</time>
      </trkpt>
      <trkpt lat="49.72821" lon="2.33066">
        <ele>99.8</ele>
        <time>2013-03-17T09:51:08Z</time>
      </trkpt>
      <trkpt lat="49.72818" lon="2.3311">
        <ele>95</ele>
        <time>2013-03-17T09:51:31Z</time>
      </trkpt>
      <trkpt lat="49.72818" lon="2.3311">
        <ele>95</ele>
        <time>2013-03-17T09:55:32Z</time>
      </trkpt>
      <trkpt lat="49.7282" lon="2.33134">
        <ele>89</ele>
        <time>2013-03-17T09:55:36Z</time>
      </trkpt>
      <trkpt lat="49.72816" lon="2.33118">
        <ele>94.3</ele>
        <time>2013-03-17T09:55:42Z</time>
      </trkpt>
      <trkpt lat="49.72816" lon="2.33118">
        <ele>94.3</ele>
        <time>2013-03-17T10:03:54Z</time>
      </trkpt>
      <trkpt lat="49.72812" lon="2.33102">
        <ele>98.8</ele>
        <time>2013-03-17T10:04:05Z</time>
      </trkpt>
      <trkpt lat="49.72821" lon="2.33087">
        <ele>96.6</ele>
        <time>2013-03-17T10:04:18Z</time>
      </trkpt>
      <trkpt lat="49.72833" lon="2.33082">
        <ele>95.7</ele>
        <time>2013-03-17T10:04:36Z</time>
      </trkpt>
      <trkpt lat="49.72836" lon="2.33059">
        <ele>95.3</ele>
        <time>2013-03-17T10:04:43Z</time>
      </trkpt>
      <trkpt lat="49.72847" lon="2.33048">
        <ele>94.9</ele>
        <time>2013-03-17T10:04:50Z</time>
      </trkpt>
      <trkpt lat="49.72862" lon="2.33042">
        <ele>94.6</ele>
        <time>2013-03-17T10:04:56Z</time>
      </trkpt>
      <trkpt lat="49.72869" lon="2.33037">
        <ele>94</ele>
        <time>2013-03-17T10:05:07Z</time>
      </trkpt>
      <trkpt lat="49.7288" lon="2.33052">
        <ele>93.5</ele>
        <time>2013-03-17T10:05:18Z</time>
      </trkpt>
      <trkpt lat="49.72894" lon="2.33049">
        <ele>93.2</ele>
        <time>2013-03-17T10:05:28Z</time>
      </trkpt>
      <trkpt lat="49.72908" lon="2.33051">
        <ele>94.7</ele>
        <time>2013-03-17T10:05:36Z</time>
      </trkpt>
      <trkpt lat="49.72922" lon="2.33047">
        <ele>96.2</ele>
        <time>2013-03-17T10:05:47Z</time>
      </trkpt>
      <trkpt lat="49.72936" lon="2.3305">
        <ele>96.6</ele>
        <time>2013-03-17T10:05:57Z</time>
      </trkpt>
      <trkpt lat="49.7295" lon="2.33057">
        <ele>97.1</ele>
        <time>2013-03-17T10:06:08Z</time>
      </trkpt>
      <trkpt lat="49.72963" lon="2.33065">
        <ele>97.6</ele>
        <time>2013-03-17T10:06:21Z</time>
      </trkpt>
      <trkpt lat="49.72978" lon="2.3306">
        <ele>98.6</ele>
        <time>2013-03-17T10:06:44Z</time>
      </trkpt>
      <trkpt lat="49.72992" lon="2.3305">
        <ele>98.8</ele>
        <time>2013-03-17T10:06:50Z</time>
      </trkpt>
      <trkpt lat="49.73003" lon="2.33036">
        <ele>98.5</ele>
        <time>2013-03-17T10:06:56Z</time>
      </trkpt>
      <trkpt lat="49.73012" lon="2.33053">
        <ele>96.8</ele>
        <time>2013-03-17T10:07:09Z</time>
      </trkpt>
      <trkpt lat="49.73024" lon="2.33064">
        <ele>98.6</ele>
        <time>2013-03-17T10:07:19Z</time>
      </trkpt>
      <trkpt lat="49.73037" lon="2.3307">
        <ele>99.6</ele>
        <time>2013-03-17T10:07:30Z</time>
      </trkpt>
      <trkpt lat="49.73051" lon="2.33076">
        <ele>100.2</ele>
        <time>2013-03-17T10:07:41Z</time>
      </trkpt>
      <trkpt lat="49.73064" lon="2.33082">
        <ele>100.8</ele>
        <time>2013-03-17T10:07:51Z</time>
      </trkpt>
      <trkpt lat="49.73075" lon="2.33094">
        <ele>101.5</ele>
        <time>2013-03-17T10:08:02Z</time>
      </trkpt>
      <trkpt lat="49.73089" lon="2.33095">
        <ele>101.4</ele>
        <time>2013-03-17T10:08:12Z</time>
      </trkpt>
      <trkpt lat="49.73102" lon="2.33102">
        <ele>98.8</ele>
        <time>2013-03-17T10:08:22Z</time>
      </trkpt>
      <trkpt lat="49.73115" lon="2.33107">
        <ele>96.2</ele>
        <time>2013-03-17T10:08:33Z</time>
      </trkpt>
      <trkpt lat="49.73128" lon="2.33114">
        <ele>95.9</ele>
        <time>2013-03-17T10:08:43Z</time>
      </trkpt>
      <trkpt lat="49.73143" lon="2.33118">
        <ele>98</ele>
        <time>2013-03-17T10:08:55Z</time>
      </trkpt>
      <trkpt lat="49.73156" lon="2.33126">
        <ele>96.5</ele>
        <time>2013-03-17T10:09:06Z</time>
      </trkpt>
      <trkpt lat="49.73169" lon="2.33135">
        <ele>94.5</ele>
        <time>2013-03-17T10:09:18Z</time>
      </trkpt>
      <trkpt lat="49.73182" lon="2.33145">
        <ele>89.2</ele>
        <time>2013-03-17T10:09:30Z</time>
      </trkpt>
      <trkpt lat="49.73194" lon="2.33154">
        <ele>85.3</ele>
        <time>2013-03-17T10:09:42Z</time>
      </trkpt>
      <trkpt lat="49.73208" lon="2.33162">
        <ele>80.3</ele>
        <time>2013-03-17T10:09:54Z</time>
      </trkpt>
      <trkpt lat="49.73221" lon="2.33173">
        <ele>79.3</ele>
        <time>2013-03-17T10:10:05Z</time>
      </trkpt>
      <trkpt lat="49.73234" lon="2.3318">
        <ele>78.4</ele>
        <time>2013-03-17T10:10:16Z</time>
      </trkpt>
      <trkpt lat="49.73247" lon="2.33188">
        <ele>76.8</ele>
        <time>2013-03-17T10:10:27Z</time>
      </trkpt>
      <trkpt lat="49.7326" lon="2.33197">
        <ele>74.3</ele>
        <time>2013-03-17T10:10:39Z</time>
      </trkpt>
      <trkpt lat="49.73274" lon="2.33203">
        <ele>76.9</ele>
        <time>2013-03-17T10:10:50Z</time>
      </trkpt>
      <trkpt lat="49.73284" lon="2.33218">
        <ele>75.4</ele>
        <time>2013-03-17T10:11:01Z</time>
      </trkpt>
      <trkpt lat="49.73296" lon="2.3323">
        <ele>74</ele>
        <time>2013-03-17T10:11:11Z</time>
      </trkpt>
      <trkpt lat="49.73309" lon="2.3324">
        <ele>71.8</ele>
        <time>2013-03-17T10:11:23Z</time>
      </trkpt>
      <trkpt lat="49.73321" lon="2.33252">
        <ele>69.8</ele>
        <time>2013-03-17T10:11:36Z</time>
      </trkpt>
      <trkpt lat="49.73334" lon="2.33261">
        <ele>68</ele>
        <time>2013-03-17T10:11:49Z</time>
      </trkpt>
      <trkpt lat="49.73346" lon="2.33273">
        <ele>70.8</ele>
        <time>2013-03-17T10:12:01Z</time>
      </trkpt>
      <trkpt lat="49.73354" lon="2.33292">
        <ele>71.1</ele>
        <time>2013-03-17T10:12:12Z</time>
      </trkpt>
      <trkpt lat="49.73368" lon="2.33299">
        <ele>69.4</ele>
        <time>2013-03-17T10:12:24Z</time>
      </trkpt>
      <trkpt lat="49.73377" lon="2.33316">
        <ele>67.4</ele>
        <time>2013-03-17T10:12:37Z</time>
      </trkpt>
      <trkpt lat="49.73385" lon="2.33336">
        <ele>68.5</ele>
        <time>2013-03-17T10:12:54Z</time>
      </trkpt>
      <trkpt lat="49.73398" lon="2.3335">
        <ele>69.3</ele>
        <time>2013-03-17T10:13:01Z</time>
      </trkpt>
      <trkpt lat="49.73407" lon="2.33366">
        <ele>70.2</ele>
        <time>2013-03-17T10:13:10Z</time>
      </trkpt>
      <trkpt lat="49.73416" lon="2.33384">
        <ele>70.8</ele>
        <time>2013-03-17T10:13:21Z</time>
      </trkpt>
      <trkpt lat="49.73422" lon="2.33403">
        <ele>70.3</ele>
        <time>2013-03-17T10:13:33Z</time>
      </trkpt>
      <trkpt lat="49.73433" lon="2.33417">
        <ele>69.5</ele>
        <time>2013-03-17T10:13:45Z</time>
      </trkpt>
      <trkpt lat="49.73443" lon="2.33432">
        <ele>68.4</ele>
        <time>2013-03-17T10:13:55Z</time>
      </trkpt>
      <trkpt lat="49.73452" lon="2.33448">
        <ele>67</ele>
        <time>2013-03-17T10:14:08Z</time>
      </trkpt>
      <trkpt lat="49.73464" lon="2.33462">
        <ele>65.3</ele>
        <time>2013-03-17T10:14:19Z</time>
      </trkpt>
      <trkpt lat="49.73475" lon="2.33474">
        <ele>63.4</ele>
        <time>2013-03-17T10:14:33Z</time>
      </trkpt>
      <trkpt lat="49.73476" lon="2.33497">
        <ele>61.4</ele>
        <time>2013-03-17T10:14:45Z</time>
      </trkpt>
      <trkpt lat="49.73487" lon="2.33511">
        <ele>58.6</ele>
        <time>2013-03-17T10:14:55Z</time>
      </trkpt>
      <trkpt lat="49.73496" lon="2.33526">
        <ele>56.8</ele>
        <time>2013-03-17T10:15:06Z</time>
      </trkpt>
      <trkpt lat="49.73506" lon="2.3354">
        <ele>55.7</ele>
        <time>2013-03-17T10:15:15Z</time>
      </trkpt>
      <trkpt lat="49.73515" lon="2.33556">
        <ele>54.1</ele>
        <time>2013-03-17T10:15:24Z</time>
      </trkpt>
      <trkpt lat="49.73524" lon="2.33573">
        <ele>51.2</ele>
        <time>2013-03-17T10:15:36Z</time>
      </trkpt>
      <trkpt lat="49.73535" lon="2.33587">
        <ele>48.1</ele>
        <time>2013-03-17T10:15:48Z</time>
      </trkpt>
      <trkpt lat="49.73547" lon="2.33599">
        <ele>44.6</ele>
        <time>2013-03-17T10:16:01Z</time>
      </trkpt>
      <trkpt lat="49.73559" lon="2.33611">
        <ele>44.7</ele>
        <time>2013-03-17T10:16:13Z</time>
      </trkpt>
      <trkpt lat="49.73571" lon="2.33621">
        <ele>45.6</ele>
        <time>2013-03-17T10:16:25Z</time>
      </trkpt>
      <trkpt lat="49.73584" lon="2.3363">
        <ele>46.6</ele>
        <time>2013-03-17T10:16:35Z</time>
      </trkpt>
      <trkpt lat="49.73597" lon="2.33639">
        <ele>48.4</ele>
        <time>2013-03-17T10:16:46Z</time>
      </trkpt>
      <trkpt lat="49.73608" lon="2.33651">
        <ele>50.6</ele>
        <time>2013-03-17T10:17:00Z</time>
      </trkpt>
      <trkpt lat="49.73619" lon="2.33662">
        <ele>52</ele>
        <time>2013-03-17T10:17:09Z</time>
      </trkpt>
      <trkpt lat="49.73646" lon="2.33696">
        <ele>49.5</ele>
        <time>2013-03-17T10:17:32Z</time>
      </trkpt>
      <trkpt lat="49.73646" lon="2.33696">
        <ele>49.5</ele>
        <time>2013-03-17T10:18:26Z</time>
      </trkpt>
      <trkpt lat="49.73661" lon="2.33716">
        <ele>46.3</ele>
        <time>2013-03-17T10:18:26Z</time>
      </trkpt>
      <trkpt lat="49.73671" lon="2.33731">
        <ele>47.3</ele>
        <time>2013-03-17T10:18:36Z</time>
      </trkpt>
      <trkpt lat="49.73681" lon="2.33747">
        <ele>48.6</ele>
        <time>2013-03-17T10:18:48Z</time>
      </trkpt>
      <trkpt lat="49.73692" lon="2.33761">
        <ele>49.7</ele>
        <time>2013-03-17T10:18:59Z</time>
      </trkpt>
      <trkpt lat="49.73696" lon="2.33781">
        <ele>56.2</ele>
        <time>2013-03-17T10:19:15Z</time>
      </trkpt>
      <trkpt lat="49.73702" lon="2.33799">
        <ele>53.8</ele>
        <time>2013-03-17T10:19:34Z</time>
      </trkpt>
      <trkpt lat="49.73711" lon="2.33816">
        <ele>55.6</ele>
        <time>2013-03-17T10:19:44Z</time>
      </trkpt>
      <trkpt lat="49.73721" lon="2.33832">
        <ele>56</ele>
        <time>2013-03-17T10:19:55Z</time>
      </trkpt>
      <trkpt lat="49.7373" lon="2.33848">
        <ele>56.3</ele>
        <time>2013-03-17T10:20:06Z</time>
      </trkpt>
      <trkpt lat="49.7374" lon="2.33862">
        <ele>57.1</ele>
        <time>2013-03-17T10:20:16Z</time>
      </trkpt>
      <trkpt lat="49.73752" lon="2.33875">
        <ele>57.8</ele>
        <time>2013-03-17T10:20:26Z</time>
      </trkpt>
      <trkpt lat="49.73764" lon="2.33886">
        <ele>58.6</ele>
        <time>2013-03-17T10:20:36Z</time>
      </trkpt>
      <trkpt lat="49.73776" lon="2.33898">
        <ele>58.7</ele>
        <time>2013-03-17T10:20:46Z</time>
      </trkpt>
      <trkpt lat="49.73787" lon="2.33911">
        <ele>57.9</ele>
        <time>2013-03-17T10:20:56Z</time>
      </trkpt>
      <trkpt lat="49.73796" lon="2.33928">
        <ele>57</ele>
        <time>2013-03-17T10:21:08Z</time>
      </trkpt>
      <trkpt lat="49.73805" lon="2.33946">
        <ele>55.9</ele>
        <time>2013-03-17T10:21:21Z</time>
      </trkpt>
      <trkpt lat="49.73814" lon="2.33961">
        <ele>54.8</ele>
        <time>2013-03-17T10:21:34Z</time>
      </trkpt>
      <trkpt lat="49.73822" lon="2.33979">
        <ele>52.3</ele>
        <time>2013-03-17T10:21:46Z</time>
      </trkpt>
      <trkpt lat="49.73831" lon="2.33996">
        <ele>55</ele>
        <time>2013-03-17T10:21:57Z</time>
      </trkpt>
      <trkpt lat="49.73843" lon="2.3401">
        <ele>54.6</ele>
        <time>2013-03-17T10:22:08Z</time>
      </trkpt>
      <trkpt lat="49.73853" lon="2.34025">
        <ele>54.2</ele>
        <time>2013-03-17T10:22:19Z</time>
      </trkpt>
      <trkpt lat="49.73863" lon="2.3404">
        <ele>53.8</ele>
        <time>2013-03-17T10:22:30Z</time>
      </trkpt>
      <trkpt lat="49.73873" lon="2.34055">
        <ele>53.4</ele>
        <time>2013-03-17T10:22:42Z</time>
      </trkpt>
      <trkpt lat="49.73881" lon="2.34073">
        <ele>52.8</ele>
        <time>2013-03-17T10:22:57Z</time>
      </trkpt>
      <trkpt lat="49.73887" lon="2.34092">
        <ele>52.4</ele>
        <time>2013-03-17T10:23:10Z</time>
      </trkpt>
      <trkpt lat="49.73899" lon="2.34105">
        <ele>51.8</ele>
        <time>2013-03-17T10:23:21Z</time>
      </trkpt>
      <trkpt lat="49.73911" lon="2.34112">
        <ele>49.5</ele>
        <time>2013-03-17T10:23:33Z</time>
      </trkpt>
      <trkpt lat="49.73925" lon="2.34117">
        <ele>46</ele>
        <time>2013-03-17T10:23:46Z</time>
      </trkpt>
      <trkpt lat="49.7394" lon="2.34122">
        <ele>47.3</ele>
        <time>2013-03-17T10:23:59Z</time>
      </trkpt>
      <trkpt lat="49.73953" lon="2.34132">
        <ele>47.8</ele>
        <time>2013-03-17T10:24:12Z</time>
      </trkpt>
      <trkpt lat="49.73964" lon="2.34146">
        <ele>48.3</ele>
        <time>2013-03-17T10:24:26Z</time>
      </trkpt>
      <trkpt lat="49.73977" lon="2.34155">
        <ele>48.6</ele>
        <time>2013-03-17T10:24:34Z</time>
      </trkpt>
      <trkpt lat="49.73989" lon="2.34167">
        <ele>49.2</ele>
        <time>2013-03-17T10:24:50Z</time>
      </trkpt>
      <trkpt lat="49.74001" lon="2.34177">
        <ele>49.6</ele>
        <time>2013-03-17T10:25:02Z</time>
      </trkpt>
      <trkpt lat="49.74014" lon="2.34188">
        <ele>50.1</ele>
        <time>2013-03-17T10:25:15Z</time>
      </trkpt>
      <trkpt lat="49.74027" lon="2.34194">
        <ele>50.6</ele>
        <time>2013-03-17T10:25:25Z</time>
      </trkpt>
      <trkpt lat="49.74039" lon="2.34204">
        <ele>51.3</ele>
        <time>2013-03-17T10:25:38Z</time>
      </trkpt>
      <trkpt lat="49.74053" lon="2.3421">
        <ele>51.8</ele>
        <time>2013-03-17T10:25:49Z</time>
      </trkpt>
      <trkpt lat="49.74066" lon="2.3422">
        <ele>52.5</ele>
        <time>2013-03-17T10:26:02Z</time>
      </trkpt>
      <trkpt lat="49.74079" lon="2.34229">
        <ele>53</ele>
        <time>2013-03-17T10:26:13Z</time>
      </trkpt>
      <trkpt lat="49.74092" lon="2.34239">
        <ele>52</ele>
        <time>2013-03-17T10:26:25Z</time>
      </trkpt>
      <trkpt lat="49.74103" lon="2.34253">
        <ele>51.2</ele>
        <time>2013-03-17T10:26:36Z</time>
      </trkpt>
      <trkpt lat="49.74114" lon="2.34266">
        <ele>50.2</ele>
        <time>2013-03-17T10:26:48Z</time>
      </trkpt>
      <trkpt lat="49.74124" lon="2.3428">
        <ele>53.3</ele>
        <time>2013-03-17T10:27:00Z</time>
      </trkpt>
      <trkpt lat="49.74138" lon="2.34288">
        <ele>56.6</ele>
        <time>2013-03-17T10:27:10Z</time>
      </trkpt>
      <trkpt lat="49.74149" lon="2.34299">
        <ele>55.1</ele>
        <time>2013-03-17T10:27:21Z</time>
      </trkpt>
      <trkpt lat="49.74161" lon="2.34311">
        <ele>53.5</ele>
        <time>2013-03-17T10:27:32Z</time>
      </trkpt>
      <trkpt lat="49.74171" lon="2.34326">
        <ele>51.2</ele>
        <time>2013-03-17T10:27:45Z</time>
      </trkpt>
      <trkpt lat="49.74183" lon="2.34338">
        <ele>53.9</ele>
        <time>2013-03-17T10:27:56Z</time>
      </trkpt>
      <trkpt lat="49.74194" lon="2.34351">
        <ele>53.4</ele>
        <time>2013-03-17T10:28:08Z</time>
      </trkpt>
      <trkpt lat="49.74205" lon="2.34367">
        <ele>53</ele>
        <time>2013-03-17T10:28:19Z</time>
      </trkpt>
      <trkpt lat="49.74215" lon="2.3438">
        <ele>52.5</ele>
        <time>2013-03-17T10:28:31Z</time>
      </trkpt>
      <trkpt lat="49.74225" lon="2.34395">
        <ele>52.1</ele>
        <time>2013-03-17T10:28:43Z</time>
      </trkpt>
      <trkpt lat="49.74235" lon="2.3441">
        <ele>51.6</ele>
        <time>2013-03-17T10:28:57Z</time>
      </trkpt>
      <trkpt lat="49.74246" lon="2.34444">
        <ele>53.4</ele>
        <time>2013-03-17T10:29:14Z</time>
      </trkpt>
      <trkpt lat="49.74246" lon="2.34444">
        <ele>53.4</ele>
        <time>2013-03-17T10:30:55Z</time>
      </trkpt>
      <trkpt lat="49.74246" lon="2.34466">
        <ele>55.6</ele>
        <time>2013-03-17T10:30:59Z</time>
      </trkpt>
      <trkpt lat="49.74233" lon="2.34475">
        <ele>57.8</ele>
        <time>2013-03-17T10:31:10Z</time>
      </trkpt>
      <trkpt lat="49.7422" lon="2.34483">
        <ele>55.5</ele>
        <time>2013-03-17T10:31:18Z</time>
      </trkpt>
      <trkpt lat="49.74206" lon="2.34484">
        <ele>51.8</ele>
        <time>2013-03-17T10:31:29Z</time>
      </trkpt>
      <trkpt lat="49.74193" lon="2.34493">
        <ele>49.8</ele>
        <time>2013-03-17T10:31:41Z</time>
      </trkpt>
      <trkpt lat="49.74178" lon="2.34495">
        <ele>49.3</ele>
        <time>2013-03-17T10:31:54Z</time>
      </trkpt>
      <trkpt lat="49.74164" lon="2.34496">
        <ele>50.4</ele>
        <time>2013-03-17T10:32:05Z</time>
      </trkpt>
      <trkpt lat="49.74156" lon="2.34515">
        <ele>54</ele>
        <time>2013-03-17T10:32:13Z</time>
      </trkpt>
      <trkpt lat="49.74155" lon="2.34535">
        <ele>55.7</ele>
        <time>2013-03-17T10:32:24Z</time>
      </trkpt>
      <trkpt lat="49.74152" lon="2.34557">
        <ele>57.6</ele>
        <time>2013-03-17T10:32:36Z</time>
      </trkpt>
      <trkpt lat="49.74158" lon="2.34577">
        <ele>59.2</ele>
        <time>2013-03-17T10:32:46Z</time>
      </trkpt>
      <trkpt lat="49.74165" lon="2.34596">
        <ele>59.8</ele>
        <time>2013-03-17T10:32:53Z</time>
      </trkpt>
      <trkpt lat="49.74165" lon="2.34617">
        <ele>58.8</ele>
        <time>2013-03-17T10:33:04Z</time>
      </trkpt>
      <trkpt lat="49.74165" lon="2.3464">
        <ele>57.4</ele>
        <time>2013-03-17T10:33:15Z</time>
      </trkpt>
      <trkpt lat="49.74169" lon="2.34661">
        <ele>55.3</ele>
        <time>2013-03-17T10:33:23Z</time>
      </trkpt>
      <trkpt lat="49.74169" lon="2.34683">
        <ele>55.7</ele>
        <time>2013-03-17T10:33:33Z</time>
      </trkpt>
      <trkpt lat="49.74169" lon="2.34705">
        <ele>56.5</ele>
        <time>2013-03-17T10:33:44Z</time>
      </trkpt>
      <trkpt lat="49.74172" lon="2.34726">
        <ele>57.3</ele>
        <time>2013-03-17T10:33:55Z</time>
      </trkpt>
      <trkpt lat="49.74173" lon="2.34749">
        <ele>58.5</ele>
        <time>2013-03-17T10:34:05Z</time>
      </trkpt>
      <trkpt lat="49.74175" lon="2.34771">
        <ele>63</ele>
        <time>2013-03-17T10:34:14Z</time>
      </trkpt>
      <trkpt lat="49.74177" lon="2.34792">
        <ele>61.6</ele>
        <time>2013-03-17T10:34:25Z</time>
      </trkpt>
      <trkpt lat="49.74172" lon="2.34813">
        <ele>58.7</ele>
        <time>2013-03-17T10:34:35Z</time>
      </trkpt>
      <trkpt lat="49.74169" lon="2.34831">
        <ele>60.7</ele>
        <time>2013-03-17T10:34:48Z</time>
      </trkpt>
      <trkpt lat="49.74176" lon="2.34848">
        <ele>61</ele>
        <time>2013-03-17T10:34:51Z</time>
      </trkpt>
      <trkpt lat="49.74181" lon="2.34867">
        <ele>59.1</ele>
        <time>2013-03-17T10:35:04Z</time>
      </trkpt>
      <trkpt lat="49.74178" lon="2.34889">
        <ele>54.4</ele>
        <time>2013-03-17T10:35:13Z</time>
      </trkpt>
      <trkpt lat="49.74176" lon="2.3491">
        <ele>55</ele>
        <time>2013-03-17T10:35:23Z</time>
      </trkpt>
      <trkpt lat="49.74172" lon="2.3493">
        <ele>54.4</ele>
        <time>2013-03-17T10:35:37Z</time>
      </trkpt>
      <trkpt lat="49.74172" lon="2.34952">
        <ele>54.1</ele>
        <time>2013-03-17T10:35:45Z</time>
      </trkpt>
      <trkpt lat="49.7417" lon="2.34974">
        <ele>53.5</ele>
        <time>2013-03-17T10:35:58Z</time>
      </trkpt>
      <trkpt lat="49.74173" lon="2.34995">
        <ele>53</ele>
        <time>2013-03-17T10:36:10Z</time>
      </trkpt>
      <trkpt lat="49.74185" lon="2.35005">
        <ele>52.6</ele>
        <time>2013-03-17T10:36:20Z</time>
      </trkpt>
      <trkpt lat="49.742" lon="2.35012">
        <ele>52.1</ele>
        <time>2013-03-17T10:36:33Z</time>
      </trkpt>
      <trkpt lat="49.74212" lon="2.35019">
        <ele>51.5</ele>
        <time>2013-03-17T10:36:42Z</time>
      </trkpt>
      <trkpt lat="49.74225" lon="2.35031">
        <ele>50.6</ele>
        <time>2013-03-17T10:36:53Z</time>
      </trkpt>
      <trkpt lat="49.74234" lon="2.35048">
        <ele>49.5</ele>
        <time>2013-03-17T10:37:07Z</time>
      </trkpt>
      <trkpt lat="49.74248" lon="2.35048">
        <ele>48.5</ele>
        <time>2013-03-17T10:37:20Z</time>
      </trkpt>
      <trkpt lat="49.7426" lon="2.35059">
        <ele>47.9</ele>
        <time>2013-03-17T10:37:28Z</time>
      </trkpt>
      <trkpt lat="49.74274" lon="2.35067">
        <ele>46.4</ele>
        <time>2013-03-17T10:37:40Z</time>
      </trkpt>
      <trkpt lat="49.74285" lon="2.3508">
        <ele>43.2</ele>
        <time>2013-03-17T10:37:53Z</time>
      </trkpt>
      <trkpt lat="49.74297" lon="2.35086">
        <ele>42.5</ele>
        <time>2013-03-17T10:38:00Z</time>
      </trkpt>
      <trkpt lat="49.7431" lon="2.35093">
        <ele>41.8</ele>
        <time>2013-03-17T10:38:07Z</time>
      </trkpt>
      <trkpt lat="49.74324" lon="2.35098">
        <ele>41</ele>
        <time>2013-03-17T10:38:16Z</time>
      </trkpt>
      <trkpt lat="49.74336" lon="2.35107">
        <ele>41</ele>
        <time>2013-03-17T10:38:24Z</time>
      </trkpt>
      <trkpt lat="49.74348" lon="2.3512">
        <ele>41</ele>
        <time>2013-03-17T10:38:35Z</time>
      </trkpt>
      <trkpt lat="49.7436" lon="2.35134">
        <ele>42.3</ele>
        <time>2013-03-17T10:38:47Z</time>
      </trkpt>
      <trkpt lat="49.74371" lon="2.35147">
        <ele>43.8</ele>
        <time>2013-03-17T10:38:57Z</time>
      </trkpt>
      <trkpt lat="49.74372" lon="2.35167">
        <ele>47</ele>
        <time>2013-03-17T10:39:09Z</time>
      </trkpt>
      <trkpt lat="49.74377" lon="2.35187">
        <ele>46.6</ele>
        <time>2013-03-17T10:39:18Z</time>
      </trkpt>
      <trkpt lat="49.7438" lon="2.35209">
        <ele>45.7</ele>
        <time>2013-03-17T10:39:31Z</time>
      </trkpt>
      <trkpt lat="49.74393" lon="2.35218">
        <ele>46</ele>
        <time>2013-03-17T10:39:37Z</time>
      </trkpt>
      <trkpt lat="49.74403" lon="2.35234">
        <ele>46.7</ele>
        <time>2013-03-17T10:39:48Z</time>
      </trkpt>
      <trkpt lat="49.74416" lon="2.35245">
        <ele>47.1</ele>
        <time>2013-03-17T10:39:55Z</time>
      </trkpt>
      <trkpt lat="49.74427" lon="2.35257">
        <ele>47.7</ele>
        <time>2013-03-17T10:40:06Z</time>
      </trkpt>
      <trkpt lat="49.74439" lon="2.35268">
        <ele>49.1</ele>
        <time>2013-03-17T10:40:19Z</time>
      </trkpt>
      <trkpt lat="49.74452" lon="2.35276">
        <ele>51</ele>
        <time>2013-03-17T10:40:32Z</time>
      </trkpt>
      <trkpt lat="49.74463" lon="2.35288">
        <ele>48.8</ele>
        <time>2013-03-17T10:40:45Z</time>
      </trkpt>
      <trkpt lat="49.74475" lon="2.353">
        <ele>44.5</ele>
        <time>2013-03-17T10:41:02Z</time>
      </trkpt>
      <trkpt lat="49.74489" lon="2.35306">
        <ele>43.9</ele>
        <time>2013-03-17T10:41:10Z</time>
      </trkpt>
      <trkpt lat="49.74504" lon="2.35301">
        <ele>43.4</ele>
        <time>2013-03-17T10:41:17Z</time>
      </trkpt>
      <trkpt lat="49.74514" lon="2.35314">
        <ele>42.5</ele>
        <time>2013-03-17T10:41:29Z</time>
      </trkpt>
      <trkpt lat="49.74528" lon="2.3532">
        <ele>42.2</ele>
        <time>2013-03-17T10:41:36Z</time>
      </trkpt>
      <trkpt lat="49.74542" lon="2.35324">
        <ele>43.5</ele>
        <time>2013-03-17T10:41:43Z</time>
      </trkpt>
      <trkpt lat="49.74556" lon="2.35333">
        <ele>42.6</ele>
        <time>2013-03-17T10:41:52Z</time>
      </trkpt>
      <trkpt lat="49.74568" lon="2.35344">
        <ele>40.2</ele>
        <time>2013-03-17T10:42:05Z</time>
      </trkpt>
      <trkpt lat="49.74587" lon="2.35353">
        <ele>44.2</ele>
        <time>2013-03-17T10:42:34Z</time>
      </trkpt>
      <trkpt lat="49.74587" lon="2.35353">
        <ele>44.2</ele>
        <time>2013-03-17T10:43:52Z</time>
      </trkpt>
      <trkpt lat="49.74595" lon="2.35349">
        <ele>46</ele>
        <time>2013-03-17T10:43:53Z</time>
      </trkpt>
      <trkpt lat="49.74582" lon="2.3534">
        <ele>50</ele>
        <time>2013-03-17T10:44:16Z</time>
      </trkpt>
      <trkpt lat="49.74578" lon="2.35318">
        <ele>48.4</ele>
        <time>2013-03-17T10:44:22Z</time>
      </trkpt>
      <trkpt lat="49.74583" lon="2.35319">
        <ele>47</ele>
        <time>2013-03-17T10:44:27Z</time>
      </trkpt>
      <trkpt lat="49.74582" lon="2.35328">
        <ele>47.8</ele>
        <time>2013-03-17T10:44:44Z</time>
      </trkpt>
      <trkpt lat="49.74582" lon="2.35328">
        <ele>47.8</ele>
        <time>2013-03-17T10:46:29Z</time>
      </trkpt>
      <trkpt lat="49.74574" lon="2.35334">
        <ele>51.6</ele>
        <time>2013-03-17T10:46:33Z</time>
      </trkpt>
      <trkpt lat="49.74578" lon="2.35342">
        <ele>54</ele>
        <time>2013-03-17T10:46:49Z</time>
      </trkpt>
      <trkpt lat="49.74586" lon="2.35343">
        <ele>50.7</ele>
        <time>2013-03-17T10:47:07Z</time>
      </trkpt>
      <trkpt lat="49.74586" lon="2.35343">
        <ele>50.7</ele>
        <time>2013-03-17T10:49:10Z</time>
      </trkpt>
      <trkpt lat="49.74593" lon="2.35329">
        <ele>45.3</ele>
        <time>2013-03-17T10:49:16Z</time>
      </trkpt>
      <trkpt lat="49.74581" lon="2.35317">
        <ele>44.6</ele>
        <time>2013-03-17T10:49:30Z</time>
      </trkpt>
      <trkpt lat="49.74581" lon="2.35317">
        <ele>44.6</ele>
        <time>2013-03-17T10:51:11Z</time>
      </trkpt>
      <trkpt lat="49.74575" lon="2.3531">
        <ele>49</ele>
        <time>2013-03-17T10:51:18Z</time>
      </trkpt>
      <trkpt lat="49.74575" lon="2.3531">
        <ele>49</ele>
        <time>2013-03-17T10:53:30Z</time>
      </trkpt>
      <trkpt lat="49.74577" lon="2.35303">
        <ele>53.6</ele>
        <time>2013-03-17T10:53:30Z</time>
      </trkpt>
      <trkpt lat="49.74568" lon="2.35318">
        <ele>57.6</ele>
        <time>2013-03-17T10:54:09Z</time>
      </trkpt>
      <trkpt lat="49.74568" lon="2.35318">
        <ele>57.6</ele>
        <time>2013-03-17T10:56:08Z</time>
      </trkpt>
      <trkpt lat="49.74572" lon="2.3532">
        <ele>53.5</ele>
        <time>2013-03-17T10:56:32Z</time>
      </trkpt>
      <trkpt lat="49.74572" lon="2.3532">
        <ele>53.5</ele>
        <time>2013-03-17T11:00:54Z</time>
      </trkpt>
      <trkpt lat="49.74576" lon="2.3532">
        <ele>50.1</ele>
        <time>2013-03-17T11:01:05Z</time>
      </trkpt>
      <trkpt lat="49.74576" lon="2.3532">
        <ele>50.1</ele>
        <time>2013-03-17T11:02:39Z</time>
      </trkpt>
      <trkpt lat="49.74575" lon="2.35313">
        <ele>48.4</ele>
        <time>2013-03-17T11:02:40Z</time>
      </trkpt>
      <trkpt lat="49.74569" lon="2.35311">
        <ele>48.7</ele>
        <time>2013-03-17T11:02:50Z</time>
      </trkpt>
      <trkpt lat="49.74582" lon="2.35319">
        <ele>49.3</ele>
        <time>2013-03-17T11:03:06Z</time>
      </trkpt>
      <trkpt lat="49.74575" lon="2.35306">
        <ele>50.3</ele>
        <time>2013-03-17T11:03:22Z</time>
      </trkpt>
      <trkpt lat="49.74575" lon="2.35306">
        <ele>50.3</ele>
        <time>2013-03-17T11:04:59Z</time>
      </trkpt>
      <trkpt lat="49.74569" lon="2.353">
        <ele>50.8</ele>
        <time>2013-03-17T11:04:59Z</time>
      </trkpt>
      <trkpt lat="49.7457" lon="2.35318">
        <ele>50.1</ele>
        <time>2013-03-17T11:05:04Z</time>
      </trkpt>
      <trkpt lat="49.74576" lon="2.35314">
        <ele>55.8</ele>
        <time>2013-03-17T11:05:13Z</time>
      </trkpt>
      <trkpt lat="49.746" lon="2.35333">
        <ele>55.7</ele>
        <time>2013-03-17T11:05:20Z</time>
      </trkpt>
      <trkpt lat="49.746" lon="2.35333">
        <ele>55.7</ele>
        <time>2013-03-17T11:07:54Z</time>
      </trkpt>
      <trkpt lat="49.74607" lon="2.35335">
        <ele>54.3</ele>
        <time>2013-03-17T11:07:56Z</time>
      </trkpt>
      <trkpt lat="49.74617" lon="2.35356">
        <ele>52.9</ele>
        <time>2013-03-17T11:08:01Z</time>
      </trkpt>
      <trkpt lat="49.74621" lon="2.35376">
        <ele>52.9</ele>
        <time>2013-03-17T11:08:02Z</time>
      </trkpt>
      <trkpt lat="49.74668" lon="2.35534">
        <ele>51.2</ele>
        <time>2013-03-17T11:08:27Z</time>
      </trkpt>
    </trkseg>
  </trk>
</gpx>